TS540 / C-GJDA 7700 Squawk Report (12th of July, 2018)

Aircraft A332 Reg No. C-GJDA Age 19 years old
Model A330 Jet engines 2 First flight 18-12-98
Registered 29-03-16 Rollout 12-98 Delivered 10-03-99
Construction No. 248 Line No. N/A Series 243
ADSHEX C05CBB Airline name Air Transat Owner N/A
Airfield based Montreal-Dorval~QC~C First tracked 2016-04-17 15:33:43
Time Lat Lon Altitude Heading Speed Vertical Rate
2018-07-12 09:43:26 GMT 51.158455 -0.167408 0 247 0 0
2018-07-12 09:43:16 GMT 51.158443 -0.167427 0 247 6 0
2018-07-12 09:43:04 GMT 51.158535 -0.167152 0 244 4 0
2018-07-12 09:42:55 GMT 51.158569 -0.166969 0 239 5 0
2018-07-12 09:42:46 GMT 51.158627 -0.166706 0 222 5 0
2018-07-12 09:42:41 GMT 51.158649 -0.166576 0 208 6 0
2018-07-12 09:42:31 GMT 51.158909 -0.166321 0 154 6 0
2018-07-12 09:42:23 GMT 51.159061 -0.166428 0 154 9 0
2018-07-12 09:42:01 GMT 51.159641 -0.167389 0 109 12 0
2018-07-12 09:41:32 GMT 51.159565 -0.169676 0 56 13 0
2018-07-12 09:41:19 GMT 51.159096 -0.170437 0 30 11 0
2018-07-12 09:41:08 GMT 51.158661 -0.170752 0 8 10 0
2018-07-12 09:40:55 GMT 51.158211 -0.171089 0 61 9 0
2018-07-12 09:40:50 GMT 51.158150 -0.171337 0 84 9 0
2018-07-12 09:40:40 GMT 51.157978 -0.171852 0 25 9 0
2018-07-12 09:40:30 GMT 51.157593 -0.171871 0 348 8 0
2018-07-12 09:40:13 GMT 51.157219 -0.171698 0 348 2 0
2018-07-12 09:40:02 GMT 51.157173 -0.171719 0 348 0 0
2018-07-12 09:39:16 GMT 51.157162 -0.171719 0 348 0 0
2018-07-12 09:39:13 GMT 51.157150 -0.171717 0 348 0 0
2018-07-12 09:39:06 GMT 51.157139 -0.171719 0 348 2 0
2018-07-12 09:39:03 GMT 51.157104 -0.171717 0 348 3 0
2018-07-12 09:38:55 GMT 51.157009 -0.171680 0 351 5 0
2018-07-12 09:38:52 GMT 51.156963 -0.171642 0 351 6 0
2018-07-12 09:38:42 GMT 51.156670 -0.171531 0 351 9 0
2018-07-12 09:38:31 GMT 51.156338 -0.171661 0 47 8 0
2018-07-12 09:38:25 GMT 51.156231 -0.171928 0 73 8 0
2018-07-12 09:38:21 GMT 51.156189 -0.172144 0 75 8 0
2018-07-12 09:38:14 GMT 51.156143 -0.172496 0 67 7 0
2018-07-12 09:38:09 GMT 51.156109 -0.172756 0 50 7 0
2018-07-12 09:38:00 GMT 51.155987 -0.173111 0 33 8 0
2018-07-12 09:37:46 GMT 51.155499 -0.173149 0 345 12 0
2018-07-12 09:36:58 GMT 51.152950 -0.172195 0 343 11 0
2018-07-12 09:36:51 GMT 51.152664 -0.172144 0 25 10 0
2018-07-12 09:36:40 GMT 51.152412 -0.172634 0 75 11 0
2018-07-12 09:36:29 GMT 51.152298 -0.173512 0 78 13 0
2018-07-12 09:36:20 GMT 51.152203 -0.174255 0 78 12 0
2018-07-12 09:36:09 GMT 51.152069 -0.175243 0 75 15 0
2018-07-12 09:35:57 GMT 51.151901 -0.176506 0 2 10 0
2018-07-12 09:35:37 GMT 51.151543 -0.177593 0 2 10 0
2018-07-12 09:35:22 GMT 51.150959 -0.177517 0 5 10 0
2018-07-12 09:35:17 GMT 51.150772 -0.177593 0 36 10 0
2018-07-12 09:35:11 GMT 51.150551 -0.177994 0 53 17 0
2018-07-12 09:35:06 GMT 51.150341 -0.178454 0 53 21 0
2018-07-12 09:34:51 GMT 51.149391 -0.181349 0 75 54 0
2018-07-12 09:34:45 GMT 51.149174 -0.182778 0 78 58 0
2018-07-12 09:34:38 GMT 51.148773 -0.185840 0 78 86 0
2018-07-12 09:34:35 GMT 51.148441 -0.188197 0 78 98 0
2018-07-12 09:34:25 GMT 51.147373 -0.195961 0 78 135 0
2018-07-12 09:34:22 GMT 51.147034 -0.198348 -100 77 132 128
2018-07-12 09:34:18 GMT 51.146576 -0.201688 -125 77 134 -128
2018-07-12 09:34:15 GMT 51.146011 -0.205765 -50 77 133 -448
2018-07-12 09:34:08 GMT 51.145222 -0.211563 25 77 132 -640
2018-07-12 09:34:05 GMT 51.144745 -0.214976 50 77 133 -704
2018-07-12 09:33:58 GMT 51.143784 -0.221731 150 77 133 -704
2018-07-12 09:33:55 GMT 51.143372 -0.224997 200 77 132 -704
2018-07-12 09:33:47 GMT 51.142384 -0.232010 275 77 134 -640
2018-07-12 09:33:44 GMT 51.141998 -0.234721 325 77 134 -512
2018-07-12 09:33:36 GMT 51.140945 -0.242367 400 77 134 -768
2018-07-12 09:33:33 GMT 51.140614 -0.244675 425 77 135 -768
2018-07-12 09:33:23 GMT 51.139206 -0.254987 575 77 134 -704
2018-07-12 09:33:15 GMT 51.138100 -0.262756 650 77 133 -704
2018-07-12 09:33:12 GMT 51.137695 -0.265750 700 77 133 -576
2018-07-12 09:33:02 GMT 51.136414 -0.274584 800 77 132 -768
2018-07-12 09:32:53 GMT 51.135025 -0.284500 925 77 132 -768
2018-07-12 09:32:46 GMT 51.134281 -0.289841 1,000 77 133 -768
2018-07-12 09:32:42 GMT 51.133713 -0.294181 1,050 78 134 -640
2018-07-12 09:32:38 GMT 51.133163 -0.298264 1,100 77 138 -896
2018-07-12 09:32:32 GMT 51.132385 -0.303609 1,175 77 139 -832
2018-07-12 09:32:29 GMT 51.131927 -0.306949 1,225 77 142 -640
2018-07-12 09:32:24 GMT 51.131332 -0.311477 1,275 77 142 -640
2018-07-12 09:32:21 GMT 51.130791 -0.315475 1,325 77 146 -832
2018-07-12 09:32:16 GMT 51.130184 -0.319748 1,400 77 148 -896
2018-07-12 09:32:09 GMT 51.129066 -0.327606 1,500 77 156 -832
2018-07-12 09:32:06 GMT 51.128632 -0.330778 1,500 77 155 -576
2018-07-12 09:32:01 GMT 51.127762 -0.337087 1,600 77 159 -896
2018-07-12 09:31:58 GMT 51.127167 -0.341022 1,625 77 160 -896
2018-07-12 09:31:54 GMT 51.126755 -0.344214 1,675 77 161 -832
2018-07-12 09:31:51 GMT 51.125996 -0.349731 1,750 77 164 -1024
2018-07-12 09:31:48 GMT 51.125484 -0.353241 1,825 77 178 -1024
2018-07-12 09:31:44 GMT 51.125019 -0.356750 1,875 77 186 -960
2018-07-12 09:31:40 GMT 51.124458 -0.361099 1,925 77 170 -960
2018-07-12 09:31:37 GMT 51.123669 -0.366516 2,050 77 174 -832
2018-07-12 09:31:33 GMT 51.123249 -0.369568 1,975 77 173 -768
2018-07-12 09:31:29 GMT 51.122498 -0.375168 2,050 77 177 -896
2018-07-12 09:31:26 GMT 51.121758 -0.380325 2,100 77 178 -1024
2018-07-12 09:31:23 GMT 51.121479 -0.382385 2,300 77 179 -1024
2018-07-12 09:31:18 GMT 51.120594 -0.388794 2,225 77 179 -1088
2018-07-12 09:31:14 GMT 51.119617 -0.395737 2,375 77 178 -960
2018-07-12 09:31:10 GMT 51.119156 -0.398922 2,375 77 178 -896
2018-07-12 09:31:07 GMT 51.118561 -0.403228 2,425 77 178 -1088
2018-07-12 09:31:04 GMT 51.118034 -0.406723 2,550 76 177 -960
2018-07-12 09:31:01 GMT 51.117233 -0.412433 2,550 76 177 -960
2018-07-12 09:30:55 GMT 51.116360 -0.418701 2,650 76 176 -1152
2018-07-12 09:30:52 GMT 51.115723 -0.423122 2,700 76 176 -1152
2018-07-12 09:30:49 GMT 51.115150 -0.426788 2,750 77 175 -1280
2018-07-12 09:30:45 GMT 51.114441 -0.431881 2,850 77 174 -896
2018-07-12 09:30:42 GMT 51.113846 -0.436113 2,875 77 175 -128
2018-07-12 09:30:39 GMT 51.113567 -0.438004 2,900 77 175 -384
2018-07-12 09:30:36 GMT 51.112930 -0.442645 2,925 77 174 -448
2018-07-12 09:30:32 GMT 51.112198 -0.447916 2,975 76 189 -640
2018-07-12 09:30:29 GMT 51.111694 -0.451479 3,000 77 177 -256
2018-07-12 09:30:24 GMT 51.110825 -0.457788 3,000 77 179 -256
2018-07-12 09:30:21 GMT 51.110355 -0.461273 3,000 77 179 0
2018-07-12 09:30:18 GMT 51.109772 -0.465509 3,025 77 180 -320
2018-07-12 09:30:13 GMT 51.108818 -0.472412 3,075 77 182 -576
2018-07-12 09:30:10 GMT 51.108353 -0.475845 3,100 77 183 -704
2018-07-12 09:30:06 GMT 51.107655 -0.480804 3,625 73 193 -640
2018-07-12 09:30:02 GMT 51.106979 -0.485700 3,250 77 186 -960
2018-07-12 09:29:59 GMT 51.106293 -0.490747 3,225 77 186 -768
2018-07-12 09:29:55 GMT 51.105419 -0.496826 3,275 64 203 -832
2018-07-12 09:29:52 GMT 51.105091 -0.499420 3,350 77 185 -896
2018-07-12 09:29:48 GMT 51.104301 -0.505066 3,425 76 185 -768
2018-07-12 09:29:45 GMT 51.103821 -0.508340 3,425 76 185 -768
2018-07-12 09:29:42 GMT 51.103184 -0.512772 3,525 73 193 -640
2018-07-12 09:29:39 GMT 51.102531 -0.517349 3,500 77 187 -320
2018-07-12 09:29:35 GMT 51.101715 -0.522816 3,600 71 195 -256
2018-07-12 09:29:32 GMT 51.101089 -0.526810 3,550 73 193 -640
2018-07-12 09:29:27 GMT 51.099880 -0.533524 3,575 72 194 -640
2018-07-12 09:29:21 GMT 51.098282 -0.541299 3,625 53 213 -896
2018-07-12 09:29:17 GMT 51.096992 -0.546570 3,650 66 201 -512
2018-07-12 09:29:12 GMT 51.095032 -0.553770 3,700 63 206 -640
2018-07-12 09:29:09 GMT 51.093750 -0.557853 3,700 63 206 -640
2018-07-12 09:29:06 GMT 51.092339 -0.562057 3,850 52 214 -960
2018-07-12 09:29:02 GMT 51.090199 -0.567474 3,775 55 211 -896
2018-07-12 09:28:59 GMT 51.088806 -0.570398 3,850 49 216 -512
2018-07-12 09:28:56 GMT 51.086197 -0.575595 3,850 47 218 -896
2018-07-12 09:28:51 GMT 51.083351 -0.580521 3,925 47 223 -576
2018-07-12 09:28:48 GMT 51.081528 -0.583686 4,050 346 244 -768
2018-07-12 09:28:44 GMT 51.078873 -0.587991 4,025 42 230 -768
2018-07-12 09:28:41 GMT 51.076046 -0.592346 4,050 39 233 -896
2018-07-12 09:28:38 GMT 51.073483 -0.595856 4,050 33 235 -512
2018-07-12 09:28:35 GMT 51.070770 -0.599052 4,125 28 236 -704
2018-07-12 09:28:32 GMT 51.068985 -0.600833 4,200 20 237 -896
2018-07-12 09:28:29 GMT 51.065571 -0.603638 4,200 15 238 -960
2018-07-12 09:28:26 GMT 51.061935 -0.605584 4,225 13 238 -1088
2018-07-12 09:28:23 GMT 51.058731 -0.606698 4,275 5 239 -1216
2018-07-12 09:28:20 GMT 51.055515 -0.607224 4,350 1 239 -1216
2018-07-12 09:28:17 GMT 51.053192 -0.607292 4,425 351 242 -1024
2018-07-12 09:28:13 GMT 51.048439 -0.606537 4,475 348 243 -768
2018-07-12 09:28:10 GMT 51.044949 -0.605164 4,525 342 246 -768
2018-07-12 09:28:07 GMT 51.042068 -0.603580 4,575 323 256 -1280
2018-07-12 09:28:04 GMT 51.038242 -0.600662 4,650 321 257 -1280
2018-07-12 09:28:00 GMT 51.033730 -0.596008 4,650 321 257 -1280
2018-07-12 09:27:57 GMT 51.031815 -0.593559 4,825 311 261 -1024
2018-07-12 09:27:54 GMT 51.029251 -0.589550 4,900 309 262 -1408
2018-07-12 09:27:50 GMT 51.026230 -0.583612 4,850 303 261 -1920
2018-07-12 09:27:46 GMT 51.023666 -0.576560 4,975 295 262 -1728
2018-07-12 09:27:43 GMT 51.022568 -0.572774 5,050 283 265 -1600
2018-07-12 09:27:40 GMT 51.021149 -0.565722 5,150 283 265 -1600
2018-07-12 09:27:36 GMT 51.020275 -0.559082 5,600 186 277 -192
2018-07-12 09:27:33 GMT 51.019997 -0.554047 5,400 262 268 -1664
2018-07-12 09:27:30 GMT 51.020134 -0.545425 5,450 260 271 -1600
2018-07-12 09:27:27 GMT 51.020836 -0.538483 5,575 255 270 -1408
2018-07-12 09:27:24 GMT 51.021423 -0.534767 5,600 253 271 -1344
2018-07-12 09:27:21 GMT 51.023022 -0.527496 5,700 217 284 -192
2018-07-12 09:27:18 GMT 51.023849 -0.524374 5,725 241 274 -512
2018-07-12 09:27:15 GMT 51.026001 -0.518188 5,750 234 275 -320
2018-07-12 09:27:11 GMT 51.029354 -0.510635 5,750 227 278 -128
2018-07-12 09:27:08 GMT 51.031906 -0.506262 5,775 223 279 -192
2018-07-12 09:27:05 GMT 51.035156 -0.501734 5,775 216 282 -320
2018-07-12 09:27:02 GMT 51.037720 -0.498690 5,800 214 283 -448
2018-07-12 09:26:59 GMT 51.041641 -0.494995 5,825 206 284 -896
2018-07-12 09:26:56 GMT 51.044083 -0.493123 5,900 200 284 -1280
2018-07-12 09:26:53 GMT 51.047287 -0.491193 5,975 194 283 -1664
2018-07-12 09:26:50 GMT 51.052212 -0.489120 6,025 190 281 -1984
2018-07-12 09:26:47 GMT 51.055481 -0.488224 6,175 187 278 -2048
2018-07-12 09:26:44 GMT 51.060402 -0.487289 6,250 186 277 -2112
2018-07-12 09:26:41 GMT 51.064220 -0.486679 6,525 186 273 -2240
2018-07-12 09:26:37 GMT 51.068550 -0.485992 6,475 186 273 -2240
2018-07-12 09:26:34 GMT 51.071823 -0.485328 6,575 186 271 -1856
2018-07-12 09:26:31 GMT 51.076511 -0.484695 6,725 186 270 -1344
2018-07-12 09:26:27 GMT 51.080612 -0.483992 6,825 186 269 -1216
2018-07-12 09:26:24 GMT 51.084236 -0.483475 6,850 186 269 -1152
2018-07-12 09:26:21 GMT 51.087914 -0.482864 7,000 186 270 -832
2018-07-12 09:26:18 GMT 51.091732 -0.482254 6,925 186 271 -640
2018-07-12 09:26:15 GMT 51.095535 -0.481691 7,000 186 272 -256
2018-07-12 09:26:12 GMT 51.099182 -0.481110 7,000 186 273 -64
2018-07-12 09:26:09 GMT 51.102161 -0.480652 7,000 186 275 -64
2018-07-12 09:26:06 GMT 51.108902 -0.479613 7,000 186 279 -320
2018-07-12 09:26:03 GMT 51.110733 -0.479316 7,125 186 280 -384
2018-07-12 09:25:59 GMT 51.115986 -0.478516 7,050 186 281 -704
2018-07-12 09:25:55 GMT 51.120129 -0.477829 7,425 176 279 -1792
2018-07-12 09:25:51 GMT 51.126137 -0.476990 7,375 177 280 -1536
2018-07-12 09:25:48 GMT 51.130692 -0.476495 7,275 184 281 -1600
2018-07-12 09:25:45 GMT 51.134190 -0.476227 7,350 179 281 -1408
2018-07-12 09:25:41 GMT 51.140030 -0.476495 7,475 172 278 -2304
2018-07-12 09:25:38 GMT 51.142548 -0.477014 7,825 153 279 -2560
2018-07-12 09:25:35 GMT 51.147690 -0.478821 7,750 161 277 -2368
2018-07-12 09:25:32 GMT 51.150238 -0.480206 7,850 143 279 -2560
2018-07-12 09:25:29 GMT 51.154724 -0.483324 7,975 143 279 -2560
2018-07-12 09:25:26 GMT 51.157093 -0.485458 8,050 139 278 -2560
2018-07-12 09:25:23 GMT 51.159885 -0.488434 8,175 137 312 -1152
2018-07-12 09:25:20 GMT 51.163010 -0.492381 8,350 138 279 -2560
2018-07-12 09:25:17 GMT 51.166443 -0.497131 8,550 137 280 -2496
2018-07-12 09:25:14 GMT 51.169922 -0.502179 8,575 137 281 -2496
2018-07-12 09:25:11 GMT 51.172073 -0.505297 8,750 137 281 -2496
2018-07-12 09:25:08 GMT 51.175552 -0.510270 8,825 137 282 -2560
2018-07-12 09:25:05 GMT 51.177948 -0.513763 9,100 137 283 -2432
2018-07-12 09:25:02 GMT 51.180836 -0.517960 9,075 137 283 -2432
2018-07-12 09:24:59 GMT 51.183720 -0.522156 9,175 137 284 -2432
2018-07-12 09:24:56 GMT 51.186768 -0.526601 9,300 137 285 -2304
2018-07-12 09:24:53 GMT 51.189285 -0.530239 9,525 137 299 -1280
2018-07-12 09:24:50 GMT 51.192333 -0.534668 9,650 137 293 -1408
2018-07-12 09:24:47 GMT 51.195499 -0.539246 9,675 137 347 -2560
2018-07-12 09:24:44 GMT 51.197872 -0.542755 9,700 137 296 -1344
2018-07-12 09:24:41 GMT 51.202560 -0.549539 9,800 137 299 -1280
2018-07-12 09:24:38 GMT 51.204620 -0.552508 9,825 137 302 -1152
2018-07-12 09:24:35 GMT 51.207417 -0.556564 9,925 137 310 -1152
2018-07-12 09:24:32 GMT 51.210251 -0.560674 9,975 137 310 -1152
2018-07-12 09:24:29 GMT 51.213821 -0.565944 10,025 137 315 -1216
2018-07-12 09:24:26 GMT 51.216911 -0.570450 10,100 137 318 -1280
2018-07-12 09:24:23 GMT 51.220589 -0.575790 10,150 137 325 -1408
2018-07-12 09:24:20 GMT 51.224670 -0.581682 10,200 137 327 -1408
2018-07-12 09:24:16 GMT 51.227943 -0.586395 10,350 137 332 -1600
2018-07-12 09:24:13 GMT 51.230877 -0.590668 10,475 137 341 -1536
2018-07-12 09:24:10 GMT 51.234974 -0.596619 10,450 137 339 -1472
2018-07-12 09:24:07 GMT 51.238697 -0.602036 10,575 137 346 -1984
2018-07-12 09:24:04 GMT 51.242111 -0.606995 10,650 137 345 -1792
2018-07-12 09:24:01 GMT 51.247009 -0.614195 10,775 137 346 -1984
2018-07-12 09:23:57 GMT 51.250992 -0.620059 10,850 137 346 -1856
2018-07-12 09:23:54 GMT 51.254562 -0.625181 11,175 137 347 -1472
2018-07-12 09:23:51 GMT 51.256943 -0.628745 11,050 137 350 -1600
2018-07-12 09:23:48 GMT 51.261555 -0.635452 11,150 137 348 -1856
2018-07-12 09:23:45 GMT 51.264771 -0.640176 11,250 137 348 -2496
2018-07-12 09:23:42 GMT 51.268955 -0.646210 11,300 137 347 -2560
2018-07-12 09:23:39 GMT 51.271236 -0.649567 11,550 137 346 -1856
2018-07-12 09:23:36 GMT 51.275288 -0.655441 11,525 137 346 -2432
2018-07-12 09:23:32 GMT 51.280426 -0.662966 11,700 137 346 -1920
2018-07-12 09:23:29 GMT 51.283806 -0.667953 11,800 137 346 -1728
2018-07-12 09:23:26 GMT 51.287624 -0.673447 11,925 137 345 -1984
2018-07-12 09:23:23 GMT 51.291275 -0.678777 12,050 137 345 -1856
2018-07-12 09:23:20 GMT 51.294800 -0.683973 12,075 137 346 -1728
2018-07-12 09:23:17 GMT 51.297592 -0.688056 12,200 137 346 -1728
2018-07-12 09:23:14 GMT 51.300522 -0.692291 12,275 137 346 -1664
2018-07-12 09:23:11 GMT 51.304337 -0.697861 12,350 137 348 -1472
2018-07-12 09:23:08 GMT 51.308487 -0.703942 12,400 137 348 -1472
2018-07-12 09:23:05 GMT 51.311554 -0.708395 12,525 137 351 -1536
2018-07-12 09:23:02 GMT 51.316208 -0.715179 12,550 137 349 -1600
2018-07-12 09:22:59 GMT 51.318741 -0.718862 12,700 137 351 -1536
2018-07-12 09:22:56 GMT 51.322212 -0.723953 12,800 137 351 -1536
2018-07-12 09:22:53 GMT 51.326263 -0.729904 12,825 137 351 -1600
2018-07-12 09:22:50 GMT 51.330917 -0.736678 12,875 137 352 -1792
2018-07-12 09:22:47 GMT 51.332966 -0.739746 13,000 137 352 -2112
2018-07-12 09:22:44 GMT 51.336685 -0.745140 13,175 137 352 -1984
2018-07-12 09:22:41 GMT 51.341625 -0.752411 13,300 137 351 -2048
2018-07-12 09:22:38 GMT 51.344231 -0.756226 13,250 137 351 -2048
2018-07-12 09:22:35 GMT 51.347672 -0.761323 13,400 137 352 -1984
2018-07-12 09:22:32 GMT 51.351242 -0.766593 13,450 137 352 -2048
2018-07-12 09:22:29 GMT 51.353897 -0.770453 13,650 137 351 -2304
2018-07-12 09:22:26 GMT 51.358059 -0.776596 13,675 137 350 -2432
2018-07-12 09:22:23 GMT 51.363319 -0.784302 13,825 137 350 -2432
2018-07-12 09:22:20 GMT 51.366856 -0.789566 13,950 137 349 -2304
2018-07-12 09:22:17 GMT 51.368999 -0.792694 14,075 137 347 -2560
2018-07-12 09:22:14 GMT 51.372581 -0.797882 14,150 137 347 -2560
2018-07-12 09:22:11 GMT 51.376465 -0.803635 14,350 137 341 -1216
2018-07-12 09:22:08 GMT 51.380722 -0.809871 14,450 137 344 -2496
2018-07-12 09:22:04 GMT 51.384933 -0.816032 14,600 137 342 -2176
2018-07-12 09:22:01 GMT 51.388550 -0.821381 14,850 137 341 -1344
2018-07-12 09:21:58 GMT 51.392738 -0.827484 14,800 137 341 -1216
2018-07-12 09:21:55 GMT 51.395763 -0.831985 14,875 137 342 -1088
2018-07-12 09:21:52 GMT 51.398026 -0.835258 14,975 137 342 -320
2018-07-12 09:21:49 GMT 51.401047 -0.839712 14,950 137 342 -512
2018-07-12 09:21:46 GMT 51.406239 -0.847321 14,975 137 342 -64
2018-07-12 09:21:43 GMT 51.409607 -0.852405 15,000 137 342 0
2018-07-12 09:21:40 GMT 51.412758 -0.857010 15,000 137 342 0
2018-07-12 09:21:37 GMT 51.415783 -0.861435 15,000 137 342 0
2018-07-12 09:21:34 GMT 51.419861 -0.867475 15,000 137 343 0
2018-07-12 09:21:31 GMT 51.423931 -0.873489 15,000 137 342 0
2018-07-12 09:21:28 GMT 51.426956 -0.877914 15,000 137 342 0
2018-07-12 09:21:25 GMT 51.430679 -0.883408 15,000 137 342 0
2018-07-12 09:21:22 GMT 51.434052 -0.888408 15,000 137 342 0
2018-07-12 09:21:19 GMT 51.436501 -0.892029 15,000 137 343 0
2018-07-12 09:21:16 GMT 51.440826 -0.898355 15,000 137 343 0
2018-07-12 09:21:13 GMT 51.443714 -0.902634 15,000 137 343 0
2018-07-12 09:21:10 GMT 51.447098 -0.907634 15,000 137 343 0
2018-07-12 09:21:07 GMT 51.450851 -0.913127 14,975 137 343 0
2018-07-12 09:21:04 GMT 51.455166 -0.919495 15,000 137 343 0
2018-07-12 09:21:01 GMT 51.458130 -0.923817 15,000 137 343 0
2018-07-12 09:20:58 GMT 51.461151 -0.928345 15,000 137 343 0
2018-07-12 09:20:55 GMT 51.465733 -0.934982 15,000 137 342 0
2018-07-12 09:20:52 GMT 51.469177 -0.940170 15,000 137 342 0
2018-07-12 09:20:49 GMT 51.472202 -0.944672 15,000 137 342 0
2018-07-12 09:20:46 GMT 51.475231 -0.949097 15,000 137 342 0
2018-07-12 09:20:43 GMT 51.479553 -0.955439 15,000 137 341 0
2018-07-12 09:20:40 GMT 51.482574 -0.959968 15,000 137 341 0
2018-07-12 09:20:37 GMT 51.485596 -0.964421 15,000 137 341 0
2018-07-12 09:20:34 GMT 51.491711 -0.973511 15,000 137 341 0
2018-07-12 09:20:31 GMT 51.492409 -0.974503 15,000 137 341 0
2018-07-12 09:20:28 GMT 51.497154 -0.981750 15,000 137 341 0
2018-07-12 09:20:25 GMT 51.499466 -0.984984 15,000 137 341 -64
2018-07-12 09:20:22 GMT 51.503765 -0.991364 15,000 137 341 -64
2018-07-12 09:20:19 GMT 51.506653 -0.995599 15,000 137 341 0
2018-07-12 09:20:15 GMT 51.511169 -1.002350 15,000 137 341 0
2018-07-12 09:20:12 GMT 51.515171 -1.008224 15,000 137 341 0
2018-07-12 09:20:09 GMT 51.518463 -1.013192 15,000 137 341 0
2018-07-12 09:20:06 GMT 51.521255 -1.017275 15,000 137 341 0
2018-07-12 09:20:03 GMT 51.526203 -1.024628 15,000 137 341 0
2018-07-12 09:20:00 GMT 51.529465 -1.029434 15,000 137 341 0
2018-07-12 09:19:57 GMT 51.532425 -1.033828 15,000 137 341 0
2018-07-12 09:19:54 GMT 51.536316 -1.039618 15,000 137 341 0
2018-07-12 09:19:51 GMT 51.539238 -1.043930 15,000 137 341 0
2018-07-12 09:19:48 GMT 51.543430 -1.050110 15,000 137 341 0
2018-07-12 09:19:44 GMT 51.546875 -1.055298 15,000 137 341 0
2018-07-12 09:19:41 GMT 51.551296 -1.061783 15,000 137 341 0
2018-07-12 09:19:37 GMT 51.555950 -1.068802 15,000 137 342 0
2018-07-12 09:19:34 GMT 51.558464 -1.072540 15,000 137 341 0
2018-07-12 09:19:31 GMT 51.561958 -1.077728 15,000 137 341 0
2018-07-12 09:19:28 GMT 51.566612 -1.084595 15,000 137 341 0
2018-07-12 09:19:25 GMT 51.569824 -1.089401 15,000 137 341 0
2018-07-12 09:19:22 GMT 51.572021 -1.092694 15,000 137 341 0
2018-07-12 09:19:19 GMT 51.576645 -1.099524 15,000 137 341 0
2018-07-12 09:19:16 GMT 51.580254 -1.104889 15,000 137 341 64
2018-07-12 09:19:13 GMT 51.583233 -1.109314 15,000 137 341 0
2018-07-12 09:19:10 GMT 51.587143 -1.115189 15,000 137 341 0
2018-07-12 09:19:07 GMT 51.590744 -1.120531 15,000 137 341 0
2018-07-12 09:19:03 GMT 51.595825 -1.128029 15,000 137 340 0
2018-07-12 09:19:00 GMT 51.598221 -1.131668 15,000 137 341 0
2018-07-12 09:18:57 GMT 51.602051 -1.137382 15,000 137 340 0
2018-07-12 09:18:54 GMT 51.605621 -1.142654 15,000 137 340 0
2018-07-12 09:18:51 GMT 51.608833 -1.147461 15,000 137 341 0
2018-07-12 09:18:47 GMT 51.613213 -1.154022 15,000 137 341 0
2018-07-12 09:18:44 GMT 51.616791 -1.159355 15,000 137 341 0
2018-07-12 09:18:41 GMT 51.619812 -1.163808 15,000 137 341 0
2018-07-12 09:18:38 GMT 51.623592 -1.169434 15,000 137 341 0
2018-07-12 09:18:35 GMT 51.626770 -1.174201 15,000 137 341 0
2018-07-12 09:18:32 GMT 51.630249 -1.179323 15,000 137 341 0
2018-07-12 09:18:29 GMT 51.634598 -1.185855 15,000 137 341 0
2018-07-12 09:18:26 GMT 51.637390 -1.190012 15,000 137 341 0
2018-07-12 09:18:23 GMT 51.640957 -1.195297 15,000 137 341 0
2018-07-12 09:18:20 GMT 51.643936 -1.199722 15,000 137 341 0
2018-07-12 09:18:17 GMT 51.648357 -1.206284 14,975 137 341 0
2018-07-12 09:18:14 GMT 51.651802 -1.211472 14,975 137 341 0
2018-07-12 09:18:11 GMT 51.654316 -1.215210 15,000 137 340 0
2018-07-12 09:18:08 GMT 51.659042 -1.222303 15,000 137 340 0
2018-07-12 09:18:05 GMT 51.662476 -1.227425 14,975 137 340 0
2018-07-12 09:18:01 GMT 51.665955 -1.232547 14,975 137 340 0
2018-07-12 09:17:58 GMT 51.669956 -1.238632 14,975 136 339 0
2018-07-12 09:17:55 GMT 51.672935 -1.243134 14,975 136 338 0
2018-07-12 09:17:52 GMT 51.677399 -1.249843 14,975 136 339 0
2018-07-12 09:17:48 GMT 51.680832 -1.254965 14,975 138 336 0
2018-07-12 09:17:45 GMT 51.685684 -1.262314 15,000 136 338 0
2018-07-12 09:17:42 GMT 51.687138 -1.264496 14,975 136 338 0
2018-07-12 09:17:39 GMT 51.691086 -1.270554 14,975 136 338 0
2018-07-12 09:17:35 GMT 51.696632 -1.279068 15,000 136 337 -64
2018-07-12 09:17:32 GMT 51.698868 -1.282501 15,000 136 337 -64
2018-07-12 09:17:29 GMT 51.702850 -1.288518 15,000 137 336 -64
2018-07-12 09:17:26 GMT 51.705666 -1.292877 15,000 136 336 -64
2018-07-12 09:17:23 GMT 51.708939 -1.297797 15,000 138 337 0
2018-07-12 09:17:20 GMT 51.713882 -1.304775 15,000 140 336 128
2018-07-12 09:17:17 GMT 51.717499 -1.309452 15,000 142 337 0
2018-07-12 09:17:14 GMT 51.719349 -1.311798 15,000 144 337 -64
2018-07-12 09:17:11 GMT 51.724144 -1.317368 15,000 146 338 0
2018-07-12 09:17:08 GMT 51.727776 -1.321335 15,000 146 343 0
2018-07-12 09:17:05 GMT 51.733036 -1.326904 15,000 146 343 0
2018-07-12 09:17:02 GMT 51.736588 -1.330682 15,000 146 345 0
2018-07-12 09:16:59 GMT 51.739563 -1.333874 15,000 146 347 64
2018-07-12 09:16:56 GMT 51.744324 -1.338922 15,000 146 347 64
2018-07-12 09:16:53 GMT 51.747574 -1.342411 14,975 146 357 0
2018-07-12 09:16:50 GMT 51.751190 -1.346207 14,975 146 353 64
2018-07-12 09:16:47 GMT 51.756821 -1.352209 14,975 146 358 0
2018-07-12 09:16:44 GMT 51.759945 -1.355515 14,975 146 360 -128
2018-07-12 09:16:41 GMT 51.764366 -1.360245 15,000 146 360 -128
2018-07-12 09:16:38 GMT 51.770096 -1.366313 15,025 146 363 -192
2018-07-12 09:16:35 GMT 51.773582 -1.370087 15,025 146 363 -128
2018-07-12 09:16:32 GMT 51.777008 -1.373736 15,025 146 363 -192
2018-07-12 09:16:29 GMT 51.781124 -1.378021 15,050 146 363 -384
2018-07-12 09:16:26 GMT 51.786758 -1.383972 15,050 146 364 -640
2018-07-12 09:16:23 GMT 51.788994 -1.386414 15,100 146 365 -1088
2018-07-12 09:16:20 GMT 51.793785 -1.391449 15,125 146 365 -1088
2018-07-12 09:16:17 GMT 51.798431 -1.396377 15,200 146 365 -1088
2018-07-12 09:16:14 GMT 51.803238 -1.401425 15,250 146 365 -1088
2018-07-12 09:16:11 GMT 51.805984 -1.404343 15,375 146 365 -1088
2018-07-12 09:16:08 GMT 51.810219 -1.408768 15,350 146 365 -1088
2018-07-12 09:16:05 GMT 51.814781 -1.413574 15,425 146 365 -1088
2018-07-12 09:16:02 GMT 51.820496 -1.419612 15,475 146 365 -1088
2018-07-12 09:15:59 GMT 51.824753 -1.424066 15,600 146 363 -1152
2018-07-12 09:15:56 GMT 51.827545 -1.427035 15,600 146 363 -1152
2018-07-12 09:15:53 GMT 51.831161 -1.430895 15,650 146 362 -1152
2018-07-12 09:15:50 GMT 51.836838 -1.436908 15,700 146 360 -1088
2018-07-12 09:15:47 GMT 51.839733 -1.439896 15,800 146 357 -1152
2018-07-12 09:15:44 GMT 51.845833 -1.446457 15,800 146 354 -1152
2018-07-12 09:15:40 GMT 51.849976 -1.450806 15,900 146 352 -1152
2018-07-12 09:15:37 GMT 51.855095 -1.456375 15,950 146 349 -1088
2018-07-12 09:15:33 GMT 51.859100 -1.460724 16,050 145 345 -1088
2018-07-12 09:15:30 GMT 51.864407 -1.466446 16,075 154 396 -1728
2018-07-12 09:15:27 GMT 51.866779 -1.469040 16,275 145 344 -1152
2018-07-12 09:15:24 GMT 51.871017 -1.473618 16,175 145 345 -1088
2018-07-12 09:15:21 GMT 51.874557 -1.477513 16,250 145 345 -896
2018-07-12 09:15:18 GMT 51.879444 -1.482849 16,275 145 344 -1024
2018-07-12 09:15:15 GMT 51.883255 -1.487014 16,400 146 345 -1152
2018-07-12 09:15:12 GMT 51.887356 -1.491470 16,425 146 347 -1088
2018-07-12 09:15:09 GMT 51.891678 -1.496219 16,450 146 345 -1216
2018-07-12 09:15:06 GMT 51.894974 -1.499786 16,500 146 347 -1088
2018-07-12 09:15:03 GMT 51.897598 -1.502616 16,675 148 349 -1216
2018-07-12 09:15:00 GMT 51.902939 -1.508255 16,600 150 350 -1280
2018-07-12 09:14:57 GMT 51.907288 -1.512680 16,725 150 350 -1280
2018-07-12 09:14:54 GMT 51.912216 -1.517290 16,725 152 351 -1216
2018-07-12 09:14:51 GMT 51.916397 -1.520844 16,800 153 353 -1088
2018-07-12 09:14:48 GMT 51.920689 -1.524275 16,850 154 354 -896
2018-07-12 09:14:45 GMT 51.925644 -1.528168 16,900 154 356 -768
2018-07-12 09:14:42 GMT 51.930222 -1.531677 16,925 154 357 -704
2018-07-12 09:14:39 GMT 51.934002 -1.534633 16,975 154 360 -960
2018-07-12 09:14:36 GMT 51.937683 -1.537476 17,200 155 385 -1088
2018-07-12 09:14:33 GMT 51.942940 -1.541539 17,150 154 365 -1216
2018-07-12 09:14:29 GMT 51.948990 -1.546249 17,200 154 367 -1536
2018-07-12 09:14:26 GMT 51.953156 -1.549377 17,175 154 365 -1152
2018-07-12 09:14:23 GMT 51.956860 -1.552368 17,250 154 367 -1280
2018-07-12 09:14:20 GMT 51.963097 -1.557077 17,300 154 367 -1536
2018-07-12 09:14:17 GMT 51.966888 -1.559906 17,575 155 369 -1664
2018-07-12 09:14:14 GMT 51.970551 -1.562653 17,475 154 368 -1664
2018-07-12 09:14:11 GMT 51.975342 -1.566336 17,625 155 369 -1600
2018-07-12 09:14:08 GMT 51.980087 -1.569868 17,800 155 384 -1088
2018-07-12 09:14:05 GMT 51.986282 -1.574576 17,725 155 371 -1344
2018-07-12 09:14:02 GMT 51.989353 -1.576852 17,825 155 371 -1216
2018-07-12 09:13:59 GMT 51.995499 -1.581482 17,875 155 385 -1088
2018-07-12 09:13:55 GMT 52.001450 -1.585922 17,900 155 376 -640
2018-07-12 09:13:52 GMT 52.005367 -1.588858 17,925 155 382 -960
2018-07-12 09:13:49 GMT 52.009918 -1.592331 17,975 155 381 -768
2018-07-12 09:13:46 GMT 52.016144 -1.596909 17,975 155 383 -1024
2018-07-12 09:13:42 GMT 52.021336 -1.600786 18,075 155 384 -1088
2018-07-12 09:13:39 GMT 52.026031 -1.604309 18,300 155 388 -1664
2018-07-12 09:13:36 GMT 52.031715 -1.608555 18,175 155 387 -1344
2018-07-12 09:13:33 GMT 52.036377 -1.612091 18,225 155 388 -1664
2018-07-12 09:13:30 GMT 52.040268 -1.614990 18,350 155 390 -1664
2018-07-12 09:13:27 GMT 52.047871 -1.620719 18,425 155 391 -1408
2018-07-12 09:13:24 GMT 52.051594 -1.623465 18,525 155 391 -1344
2018-07-12 09:13:21 GMT 52.056480 -1.627154 18,550 155 394 -1472
2018-07-12 09:13:18 GMT 52.060272 -1.630020 18,700 155 394 -1536
2018-07-12 09:13:15 GMT 52.065903 -1.634216 18,750 154 395 -1728
2018-07-12 09:13:12 GMT 52.071213 -1.638260 18,775 154 396 -1792
2018-07-12 09:13:09 GMT 52.076965 -1.642613 18,900 154 397 -1792
2018-07-12 09:13:06 GMT 52.080093 -1.645050 19,250 154 397 -1792
2018-07-12 09:13:03 GMT 52.086926 -1.650303 19,075 154 398 -1728
2018-07-12 09:13:00 GMT 52.090714 -1.653214 19,125 154 398 -1728
2018-07-12 09:12:57 GMT 52.096703 -1.657915 19,300 154 403 -1408
2018-07-12 09:12:54 GMT 52.100941 -1.661211 19,375 154 399 -1664
2018-07-12 09:12:51 GMT 52.105087 -1.664429 19,400 154 403 -1408
2018-07-12 09:12:48 GMT 52.111084 -1.669159 19,475 154 402 -1536
2018-07-12 09:12:45 GMT 52.114532 -1.671884 19,575 154 403 -1408
2018-07-12 09:12:42 GMT 52.120678 -1.676749 19,650 154 404 -1472
2018-07-12 09:12:39 GMT 52.126099 -1.680984 19,700 154 406 -1472
2018-07-12 09:12:36 GMT 52.131386 -1.685224 19,750 154 406 -1472
2018-07-12 09:12:33 GMT 52.134735 -1.687814 19,850 154 408 -1600
2018-07-12 09:12:30 GMT 52.142231 -1.693699 19,925 154 409 -1728
2018-07-12 09:12:27 GMT 52.146282 -1.696838 19,975 154 409 -1792
2018-07-12 09:12:24 GMT 52.151047 -1.700516 20,325 153 423 -1856
2018-07-12 09:12:21 GMT 52.157410 -1.705399 20,275 154 412 -1792
2018-07-12 09:12:18 GMT 52.161736 -1.708688 20,275 154 412 -1792
2018-07-12 09:12:15 GMT 52.167755 -1.713257 20,400 154 412 -1728
2018-07-12 09:12:12 GMT 52.170395 -1.715280 20,500 154 418 -1536
2018-07-12 09:12:09 GMT 52.177094 -1.720428 20,550 154 415 -1600
2018-07-12 09:12:06 GMT 52.181305 -1.723633 20,600 154 416 -1536
2018-07-12 09:12:03 GMT 52.187386 -1.728306 20,725 154 418 -1536
2018-07-12 09:12:00 GMT 52.193481 -1.733017 20,775 154 418 -1600
2018-07-12 09:11:56 GMT 52.201958 -1.739685 20,975 154 420 -1856
2018-07-12 09:11:53 GMT 52.204796 -1.741961 21,175 154 421 -1856
2018-07-12 09:11:50 GMT 52.209915 -1.746041 21,125 153 421 -1792
2018-07-12 09:11:47 GMT 52.214573 -1.749651 21,175 153 422 -1792
2018-07-12 09:11:44 GMT 52.220718 -1.754608 21,275 153 422 -1856
2018-07-12 09:11:41 GMT 52.224300 -1.757499 21,350 153 423 -1856
2018-07-12 09:11:38 GMT 52.231472 -1.763227 21,400 153 424 -1792
2018-07-12 09:11:35 GMT 52.235046 -1.766129 21,525 153 425 -1728
2018-07-12 09:11:32 GMT 52.240997 -1.770935 21,625 153 426 -1792
2018-07-12 09:11:29 GMT 52.246414 -1.775391 21,775 152 429 -2176
2018-07-12 09:11:26 GMT 52.251938 -1.779938 22,150 153 427 -1984
2018-07-12 09:11:23 GMT 52.257202 -1.784286 21,900 152 428 -2112
2018-07-12 09:11:20 GMT 52.262104 -1.788417 21,950 152 428 -2112
2018-07-12 09:11:17 GMT 52.267689 -1.793047 22,225 152 428 -2816
2018-07-12 09:11:14 GMT 52.274780 -1.799011 22,200 152 429 -2176
2018-07-12 09:11:11 GMT 52.280411 -1.803741 22,375 152 429 -2368
2018-07-12 09:11:08 GMT 52.283981 -1.806717 22,400 152 429 -2496
2018-07-12 09:11:04 GMT 52.290638 -1.812352 22,550 152 429 -2560
2018-07-12 09:11:01 GMT 52.296272 -1.817060 22,750 152 428 -2752
2018-07-12 09:10:58 GMT 52.301971 -1.821823 22,825 152 428 -2752
2018-07-12 09:10:55 GMT 52.305542 -1.824799 23,025 152 426 -3072
2018-07-12 09:10:52 GMT 52.312332 -1.830558 23,100 152 424 -1856
2018-07-12 09:10:49 GMT 52.317719 -1.835098 23,275 152 426 -3072
2018-07-12 09:10:46 GMT 52.325645 -1.841779 23,450 152 424 -3136
2018-07-12 09:10:43 GMT 52.328766 -1.844448 23,625 152 424 -3072
2018-07-12 09:10:40 GMT 52.333191 -1.848145 23,900 152 424 -2368
2018-07-12 09:10:37 GMT 52.338730 -1.852875 23,875 152 424 -2048
2018-07-12 09:10:34 GMT 52.342312 -1.855983 23,975 152 424 -1856
2018-07-12 09:10:31 GMT 52.349991 -1.862488 24,050 152 425 -1344
2018-07-12 09:10:28 GMT 52.353390 -1.865400 24,100 152 426 -2240
2018-07-12 09:10:25 GMT 52.360611 -1.871567 24,350 152 426 -2112
2018-07-12 09:10:22 GMT 52.363911 -1.874425 24,350 152 426 -2048
2018-07-12 09:10:19 GMT 52.369995 -1.879654 24,650 152 428 -1984
2018-07-12 09:10:16 GMT 52.374710 -1.883621 24,525 152 428 -1984
2018-07-12 09:10:13 GMT 52.380440 -1.888550 24,625 152 429 -1920
2018-07-12 09:10:10 GMT 52.385929 -1.893258 24,700 152 429 -1920
2018-07-12 09:10:07 GMT 52.391193 -1.897888 24,850 151 430 -1856
2018-07-12 09:10:04 GMT 52.395103 -1.901263 24,850 151 431 -1856
2018-07-12 09:10:01 GMT 52.402225 -1.907540 25,025 151 431 -1856
2018-07-12 09:09:58 GMT 52.409439 -1.913897 25,100 151 432 -1856
2018-07-12 09:09:55 GMT 52.412281 -1.916408 25,175 151 432 -1856
2018-07-12 09:09:52 GMT 52.416687 -1.920242 25,275 151 434 -1856
2018-07-12 09:09:49 GMT 52.422150 -1.925040 25,350 151 434 -1856
2018-07-12 09:09:46 GMT 52.426895 -1.929245 25,425 151 434 -1920
2018-07-12 09:09:43 GMT 52.432159 -1.933908 26,000 151 437 -1792
2018-07-12 09:09:40 GMT 52.437836 -1.938930 25,600 151 436 -1792
2018-07-12 09:09:37 GMT 52.443878 -1.944199 25,775 151 438 -1792
2018-07-12 09:09:33 GMT 52.450127 -1.949681 25,850 151 439 -1792
2018-07-12 09:09:30 GMT 52.455734 -1.954651 25,900 151 439 -1792
2018-07-12 09:09:27 GMT 52.460770 -1.959076 26,175 151 441 -1792
2018-07-12 09:09:24 GMT 52.467819 -1.965256 26,100 151 441 -1792
2018-07-12 09:09:21 GMT 52.471447 -1.968515 26,225 151 442 -1792
2018-07-12 09:09:18 GMT 52.478577 -1.974792 26,275 151 444 -1856
2018-07-12 09:09:15 GMT 52.483738 -1.979422 26,400 151 444 -1856
2018-07-12 09:09:12 GMT 52.487137 -1.982422 26,650 151 445 -1856
2018-07-12 09:09:09 GMT 52.493774 -1.988297 26,600 151 445 -1856
2018-07-12 09:09:06 GMT 52.499241 -1.993155 26,775 151 446 -1856
2018-07-12 09:09:03 GMT 52.505154 -1.998335 26,775 151 446 -1856
2018-07-12 09:09:00 GMT 52.510666 -2.003250 26,825 151 447 -1856
2018-07-12 09:08:57 GMT 52.515106 -2.007141 26,975 151 448 -1856
2018-07-12 09:08:54 GMT 52.519821 -2.011337 27,025 151 449 -1856
2018-07-12 09:08:51 GMT 52.527466 -2.018127 27,150 151 450 -1856
2018-07-12 09:08:48 GMT 52.530567 -2.020857 27,225 151 450 -1856
2018-07-12 09:08:45 GMT 52.538670 -2.027998 27,375 151 453 -1856
2018-07-12 09:08:42 GMT 52.543213 -2.032089 27,375 151 452 -1856
2018-07-12 09:08:39 GMT 52.547333 -2.035751 27,550 151 453 -1856
2018-07-12 09:08:36 GMT 52.554451 -2.042045 27,575 151 454 -1856
2018-07-12 09:08:32 GMT 52.562027 -2.048721 27,700 151 455 -1856
2018-07-12 09:08:29 GMT 52.565781 -2.052078 27,875 151 456 -1920
2018-07-12 09:08:26 GMT 52.573151 -2.058563 27,875 151 456 -1920
2018-07-12 09:08:23 GMT 52.578194 -2.062997 28,000 151 458 -1920
2018-07-12 09:08:20 GMT 52.584686 -2.068863 28,075 151 460 -1920
2018-07-12 09:08:17 GMT 52.589272 -2.072806 28,300 151 460 -1920
2018-07-12 09:08:14 GMT 52.595901 -2.078705 28,250 151 461 -1920
2018-07-12 09:08:11 GMT 52.599243 -2.081680 28,425 151 461 -1920
2018-07-12 09:08:08 GMT 52.604259 -2.086225 28,475 151 463 -1920
2018-07-12 09:08:05 GMT 52.611851 -2.092974 28,575 151 464 -1920
2018-07-12 09:08:02 GMT 52.616867 -2.097397 28,675 151 464 -1920
2018-07-12 09:07:59 GMT 52.621208 -2.101292 28,850 151 466 -1984
2018-07-12 09:07:56 GMT 52.629166 -2.108355 29,025 151 468 -1792
2018-07-12 09:07:53 GMT 52.634216 -2.112885 29,000 151 467 -1664
2018-07-12 09:07:50 GMT 52.640480 -2.118399 29,025 151 468 -1664
2018-07-12 09:07:47 GMT 52.644516 -2.122040 29,125 151 469 -1920
2018-07-12 09:07:44 GMT 52.651138 -2.127973 29,250 151 470 -2560
2018-07-12 09:07:41 GMT 52.656120 -2.132368 29,375 151 469 -2560
2018-07-12 09:07:38 GMT 52.662220 -2.137861 29,525 151 473 -1408
2018-07-12 09:07:35 GMT 52.669647 -2.144470 29,600 151 471 -2176
2018-07-12 09:07:32 GMT 52.673538 -2.147980 29,700 151 471 -1920
2018-07-12 09:07:29 GMT 52.680935 -2.154576 30,025 151 480 -2496
2018-07-12 09:07:26 GMT 52.685394 -2.158585 29,875 151 475 -1152
2018-07-12 09:07:23 GMT 52.690338 -2.163010 29,950 151 477 -1472
2018-07-12 09:07:20 GMT 52.697754 -2.169647 29,975 151 477 -1856
2018-07-12 09:07:16 GMT 52.704346 -2.175522 30,375 151 480 -2560
2018-07-12 09:07:13 GMT 52.711304 -2.181778 30,250 151 479 -2176
2018-07-12 09:07:10 GMT 52.716545 -2.186515 30,450 151 480 -2304
2018-07-12 09:07:07 GMT 52.721619 -2.191066 30,450 151 480 -2496
2018-07-12 09:07:04 GMT 52.729202 -2.197876 30,600 151 480 -2496
2018-07-12 09:07:00 GMT 52.739639 -2.207336 31,075 151 482 -2112
2018-07-12 09:06:57 GMT 52.742386 -2.209854 30,900 151 482 -2112
2018-07-12 09:06:54 GMT 52.747467 -2.214508 30,925 151 482 -2048
2018-07-12 09:06:51 GMT 52.754673 -2.221043 31,100 151 484 -1856
2018-07-12 09:06:48 GMT 52.760166 -2.226065 31,300 150 486 -1856
2018-07-12 09:06:44 GMT 52.766235 -2.231598 31,250 150 487 -1920
2018-07-12 09:06:41 GMT 52.773479 -2.238229 31,375 150 487 -2176
2018-07-12 09:06:38 GMT 52.778046 -2.242432 31,500 150 488 -2624
2018-07-12 09:06:35 GMT 52.785301 -2.249137 31,600 150 489 -3008
2018-07-12 09:06:32 GMT 52.792191 -2.255554 31,725 150 489 -3072
2018-07-12 09:06:29 GMT 52.797318 -2.260284 32,300 150 487 -3392
2018-07-12 09:06:25 GMT 52.803955 -2.266541 32,700 150 479 -4672
2018-07-12 09:06:22 GMT 52.810814 -2.272993 32,250 150 482 -4224
2018-07-12 09:06:19 GMT 52.816498 -2.278290 32,775 150 483 -3968
2018-07-12 09:06:16 GMT 52.821945 -2.283478 32,750 150 484 -3904
2018-07-12 09:06:13 GMT 52.827347 -2.288513 32,850 150 481 -4544
2018-07-12 09:06:10 GMT 52.834351 -2.295151 33,000 150 481 -4544
2018-07-12 09:06:07 GMT 52.839119 -2.299595 33,300 150 472 -3136
2018-07-12 09:06:04 GMT 52.845680 -2.305795 33,825 150 472 -3136
2018-07-12 09:06:01 GMT 52.852798 -2.312469 33,775 150 472 -3136
2018-07-12 09:05:58 GMT 52.857285 -2.316589 33,900 150 473 -3520
2018-07-12 09:05:55 GMT 52.863052 -2.321930 34,125 151 471 -2880
2018-07-12 09:05:52 GMT 52.868214 -2.326590 34,200 151 470 -2240
2018-07-12 09:05:49 GMT 52.873940 -2.331770 34,400 152 470 -2112
2018-07-12 09:05:46 GMT 52.880264 -2.337265 34,500 152 470 -2112
2018-07-12 09:05:43 GMT 52.885857 -2.342050 34,600 153 469 -1920
2018-07-12 09:05:40 GMT 52.890556 -2.345973 34,675 154 468 -1856
2018-07-12 09:05:37 GMT 52.897385 -2.351379 34,900 155 470 -1856
2018-07-12 09:05:33 GMT 52.905361 -2.357509 34,900 155 470 -1920
2018-07-12 09:05:30 GMT 52.911274 -2.362061 34,975 155 470 -1856
2018-07-12 09:05:27 GMT 52.916443 -2.365984 35,125 155 471 -1984
2018-07-12 09:05:24 GMT 52.921562 -2.369908 35,175 155 471 -1984
2018-07-12 09:05:21 GMT 52.927689 -2.374649 35,275 154 472 -1920
2018-07-12 09:05:18 GMT 52.935387 -2.380580 35,350 155 472 -1856
2018-07-12 09:05:15 GMT 52.941925 -2.385635 35,625 155 474 -1856
2018-07-12 09:05:12 GMT 52.947510 -2.389908 35,550 155 475 -1856
2018-07-12 09:05:08 GMT 52.953873 -2.394714 35,850 155 476 -1920
2018-07-12 09:05:05 GMT 52.960434 -2.399649 35,775 155 476 -1920
2018-07-12 09:05:01 GMT 52.969391 -2.406387 35,925 155 477 -1856
2018-07-12 09:04:58 GMT 52.974197 -2.409973 36,125 155 478 -1728
2018-07-12 09:04:55 GMT 52.980404 -2.414638 36,125 155 478 -1728
2018-07-12 09:04:51 GMT 52.989395 -2.421341 36,275 155 478 -1664
2018-07-12 09:04:48 GMT 52.996307 -2.426453 36,275 155 478 -1664
2018-07-12 09:04:45 GMT 53.000336 -2.429428 36,475 156 479 -1664
2018-07-12 09:04:42 GMT 53.006378 -2.433929 36,450 156 481 -1664
2018-07-12 09:04:39 GMT 53.014481 -2.439880 36,525 156 481 -1728
2018-07-12 09:04:36 GMT 53.018600 -2.442856 36,575 156 482 -1664
2018-07-12 09:04:33 GMT 53.026909 -2.448931 36,800 156 483 -1728
2018-07-12 09:04:30 GMT 53.032013 -2.452698 36,775 156 483 -1728
2018-07-12 09:04:27 GMT 53.036911 -2.456284 37,150 156 482 -1792
2018-07-12 09:04:24 GMT 53.043045 -2.460861 37,025 156 483 -1728
2018-07-12 09:04:21 GMT 53.049591 -2.465591 37,025 156 483 -1792
2018-07-12 09:04:18 GMT 53.054352 -2.469177 37,125 156 483 -1856
2018-07-12 09:04:15 GMT 53.062134 -2.474899 37,300 156 479 -1664
2018-07-12 09:04:12 GMT 53.069317 -2.480164 37,450 156 479 -1664
2018-07-12 09:04:09 GMT 53.074020 -2.483616 37,475 156 480 -1728
2018-07-12 09:04:06 GMT 53.079208 -2.487488 37,500 156 479 -1664
2018-07-12 09:04:03 GMT 53.085518 -2.492013 37,625 157 476 -1088
2018-07-12 09:04:00 GMT 53.091152 -2.496172 37,925 157 476 -1088
2018-07-12 09:03:57 GMT 53.098927 -2.501732 37,800 156 477 -1472
2018-07-12 09:03:54 GMT 53.104977 -2.506256 37,825 156 476 -1344
2018-07-12 09:03:51 GMT 53.110794 -2.510376 37,950 157 476 -1088
2018-07-12 09:03:48 GMT 53.115498 -2.513850 38,100 156 476 -960
2018-07-12 09:03:45 GMT 53.121552 -2.518131 38,150 156 476 -1024
2018-07-12 09:03:42 GMT 53.128601 -2.523167 38,075 156 476 -1024
2018-07-12 09:03:39 GMT 53.134865 -2.527663 38,175 156 477 -960
2018-07-12 09:03:36 GMT 53.140125 -2.531460 38,150 156 477 -960
2018-07-12 09:03:33 GMT 53.148598 -2.537438 38,225 156 477 -1024
2018-07-12 09:03:30 GMT 53.153687 -2.540981 38,275 157 476 -1088
2018-07-12 09:03:27 GMT 53.159538 -2.545112 38,325 157 476 -960
2018-07-12 09:03:24 GMT 53.165680 -2.549474 38,425 157 476 -1024
2018-07-12 09:03:20 GMT 53.174526 -2.555695 38,450 157 476 -1024
2018-07-12 09:03:16 GMT 53.180206 -2.559653 38,550 157 475 -1088
2018-07-12 09:03:13 GMT 53.186050 -2.563817 38,600 157 475 -1088
2018-07-12 09:03:10 GMT 53.194683 -2.569831 38,750 157 472 -1024
2018-07-12 09:03:07 GMT 53.197266 -2.571664 38,700 157 473 -1024
2018-07-12 09:03:04 GMT 53.206650 -2.578177 38,750 157 472 -1088
2018-07-12 09:03:01 GMT 53.211868 -2.581866 38,800 155 479 0
2018-07-12 09:02:58 GMT 53.218277 -2.586417 38,900 157 471 -1024
2018-07-12 09:02:55 GMT 53.223862 -2.590341 38,900 157 471 -1024
2018-07-12 09:02:52 GMT 53.230156 -2.594712 38,925 156 470 -960
2018-07-12 09:02:49 GMT 53.235973 -2.598994 39,100 156 470 -960
2018-07-12 09:02:46 GMT 53.241936 -2.603194 39,150 156 477 -960
2018-07-12 09:02:43 GMT 53.247940 -2.607370 39,250 156 471 -960
2018-07-12 09:02:40 GMT 53.253845 -2.611686 39,125 156 475 -896
2018-07-12 09:02:36 GMT 53.261902 -2.617414 39,175 156 473 -896
2018-07-12 09:02:33 GMT 53.269634 -2.622986 39,225 156 473 -960
2018-07-12 09:02:30 GMT 53.273682 -2.625975 39,300 156 475 -896
2018-07-12 09:02:27 GMT 53.280350 -2.630833 39,325 156 475 -896
2018-07-12 09:02:24 GMT 53.284241 -2.633658 39,375 156 476 -960
2018-07-12 09:02:21 GMT 53.291107 -2.638681 39,425 156 476 -960
2018-07-12 09:02:18 GMT 53.296120 -2.642373 39,475 156 477 -896
2018-07-12 09:02:15 GMT 53.303970 -2.648176 39,525 156 477 -896
2018-07-12 09:02:12 GMT 53.308411 -2.651472 39,625 156 478 -704
2018-07-12 09:02:09 GMT 53.316231 -2.657237 39,650 156 477 -960
2018-07-12 09:02:06 GMT 53.322098 -2.661516 39,700 156 478 -704
2018-07-12 09:02:03 GMT 53.329544 -2.667012 39,725 156 478 -768
2018-07-12 09:02:00 GMT 53.334435 -2.670647 39,750 156 478 -768
2018-07-12 09:01:57 GMT 53.340271 -2.674935 39,775 156 478 -704
2018-07-12 09:01:54 GMT 53.346313 -2.679330 39,800 156 479 -704
2018-07-12 09:01:51 GMT 53.352036 -2.683568 39,900 156 479 -576
2018-07-12 09:01:48 GMT 53.358124 -2.688041 39,875 156 479 -576
2018-07-12 09:01:45 GMT 53.364784 -2.692862 39,950 154 480 0
2018-07-12 09:01:42 GMT 53.371857 -2.698085 39,950 156 479 -320
2018-07-12 09:01:39 GMT 53.376984 -2.701829 39,975 156 479 -256
2018-07-12 09:01:36 GMT 53.382843 -2.706168 39,975 156 479 -128
2018-07-12 09:01:33 GMT 53.387363 -2.709584 39,975 155 479 0
2018-07-12 09:01:30 GMT 53.393280 -2.713937 40,000 155 479 0
2018-07-12 09:01:27 GMT 53.400723 -2.719601 40,000 155 479 0
2018-07-12 09:01:24 GMT 53.406731 -2.724205 40,000 154 480 0
2018-07-12 09:01:21 GMT 53.414154 -2.730181 40,000 154 480 0
2018-07-12 09:01:18 GMT 53.418915 -2.734026 40,000 154 480 0
2018-07-12 09:01:15 GMT 53.423721 -2.737871 40,000 154 480 0
2018-07-12 09:01:12 GMT 53.430702 -2.743512 40,000 154 480 0
2018-07-12 09:01:09 GMT 53.434753 -2.746744 40,000 154 480 0
2018-07-12 09:01:06 GMT 53.441551 -2.752237 40,000 154 480 0
2018-07-12 09:01:03 GMT 53.448719 -2.757972 40,000 154 480 0
2018-07-12 09:01:00 GMT 53.453934 -2.762173 40,000 154 480 0
2018-07-12 09:00:57 GMT 53.461845 -2.768555 40,000 154 480 0
2018-07-12 09:00:54 GMT 53.465897 -2.771786 40,000 154 480 0
2018-07-12 09:00:51 GMT 53.472694 -2.777279 40,000 154 479 0
2018-07-12 09:00:48 GMT 53.478012 -2.781581 40,000 154 480 0
2018-07-12 09:00:45 GMT 53.484421 -2.786682 40,000 154 480 0
2018-07-12 09:00:41 GMT 53.493988 -2.794451 40,000 154 479 0
2018-07-12 09:00:37 GMT 53.500580 -2.799736 40,000 154 480 0
2018-07-12 09:00:33 GMT 53.506954 -2.804907 40,000 154 480 0
2018-07-12 09:00:30 GMT 53.513752 -2.810400 40,000 154 479 0
2018-07-12 09:00:27 GMT 53.518593 -2.814277 40,000 154 479 0
2018-07-12 09:00:24 GMT 53.525715 -2.820093 40,000 154 479 0
2018-07-12 09:00:21 GMT 53.533905 -2.826704 40,000 154 479 0
2018-07-12 09:00:18 GMT 53.537354 -2.829464 40,000 154 479 0
2018-07-12 09:00:15 GMT 53.543106 -2.834159 40,000 154 479 0
2018-07-12 09:00:12 GMT 53.549690 -2.839481 40,000 154 479 0
2018-07-12 09:00:09 GMT 53.556290 -2.844831 40,000 154 479 0
2018-07-12 09:00:06 GMT 53.562241 -2.849618 40,000 154 479 0
2018-07-12 09:00:03 GMT 53.569244 -2.855314 40,000 154 479 0
2018-07-12 09:00:00 GMT 53.575012 -2.859977 40,000 154 479 0
2018-07-12 08:59:57 GMT 53.578903 -2.863116 40,000 154 479 0
2018-07-12 08:59:54 GMT 53.585678 -2.868609 40,000 154 479 0
2018-07-12 08:59:51 GMT 53.592239 -2.873975 40,000 154 479 0
2018-07-12 08:59:48 GMT 53.597260 -2.878026 40,000 154 479 0
2018-07-12 08:59:45 GMT 53.603622 -2.883126 40,000 154 479 0
2018-07-12 08:59:42 GMT 53.609985 -2.888306 40,000 154 478 0
2018-07-12 08:59:39 GMT 53.616959 -2.894009 40,000 154 479 0
2018-07-12 08:59:36 GMT 53.622711 -2.898664 40,000 154 478 0
2018-07-12 08:59:33 GMT 53.628506 -2.903380 40,000 154 478 0
2018-07-12 08:59:30 GMT 53.632736 -2.906825 40,000 154 479 0
2018-07-12 08:59:27 GMT 53.639877 -2.912633 40,000 154 479 0
2018-07-12 08:59:24 GMT 53.644272 -2.916164 40,000 154 479 0
2018-07-12 08:59:21 GMT 53.649765 -2.920715 39,975 154 479 0
2018-07-12 08:59:18 GMT 53.656540 -2.926208 39,975 154 479 0
2018-07-12 08:59:15 GMT 53.664597 -2.932722 39,975 154 479 0
2018-07-12 08:59:12 GMT 53.669472 -2.936742 39,975 154 479 0
2018-07-12 08:59:09 GMT 53.675262 -2.941432 40,000 154 479 0
2018-07-12 08:59:05 GMT 53.685196 -2.949515 40,000 154 478 0
2018-07-12 08:59:02 GMT 53.689022 -2.952656 39,975 154 479 0
2018-07-12 08:58:59 GMT 53.694561 -2.957180 39,975 154 479 0
2018-07-12 08:58:56 GMT 53.702148 -2.963400 39,975 154 479 0
2018-07-12 08:58:53 GMT 53.707077 -2.967407 39,975 154 479 0
2018-07-12 08:58:50 GMT 53.714310 -2.973293 39,975 154 479 0
2018-07-12 08:58:47 GMT 53.718445 -2.976649 39,975 154 479 0
2018-07-12 08:58:44 GMT 53.724400 -2.981496 39,975 154 479 0
2018-07-12 08:58:41 GMT 53.732529 -2.988124 39,975 154 479 0
2018-07-12 08:58:38 GMT 53.736320 -2.991270 40,000 154 479 0
2018-07-12 08:58:35 GMT 53.744476 -2.997934 40,000 154 478 0
2018-07-12 08:58:32 GMT 53.748283 -3.001045 40,000 154 478 0
2018-07-12 08:58:29 GMT 53.756199 -3.007507 40,000 154 478 0
2018-07-12 08:58:26 GMT 53.761139 -3.011509 40,000 154 477 0
2018-07-12 08:58:23 GMT 53.766403 -3.015826 40,000 154 477 0
2018-07-12 08:58:20 GMT 53.773819 -3.021946 40,000 154 478 0
2018-07-12 08:58:17 GMT 53.780029 -3.026976 40,000 154 478 0
2018-07-12 08:58:14 GMT 53.786545 -3.032305 40,000 154 478 0
2018-07-12 08:58:10 GMT 53.792370 -3.037073 40,000 154 478 0
2018-07-12 08:58:07 GMT 53.800747 -3.044021 40,000 154 478 0
2018-07-12 08:58:04 GMT 53.805820 -3.048141 40,000 154 478 0
2018-07-12 08:58:01 GMT 53.810028 -3.051610 39,975 154 479 0
2018-07-12 08:57:58 GMT 53.815784 -3.056300 40,000 154 479 0
2018-07-12 08:57:55 GMT 53.824310 -3.063302 40,000 153 479 0
2018-07-12 08:57:52 GMT 53.828339 -3.066598 40,000 154 479 0
2018-07-12 08:57:48 GMT 53.837570 -3.074233 40,000 154 479 0
2018-07-12 08:57:45 GMT 53.842621 -3.078369 40,000 154 479 0
2018-07-12 08:57:42 GMT 53.848572 -3.083235 40,000 154 479 0
2018-07-12 08:57:39 GMT 53.853287 -3.087080 40,000 154 479 0
2018-07-12 08:57:36 GMT 53.861450 -3.093863 40,000 154 479 0
2018-07-12 08:57:33 GMT 53.867203 -3.098615 39,975 154 479 0
2018-07-12 08:57:30 GMT 53.872742 -3.103245 39,975 154 479 0
2018-07-12 08:57:27 GMT 53.877914 -3.107404 40,000 154 479 0
2018-07-12 08:57:24 GMT 53.882072 -3.110827 40,000 154 479 0
2018-07-12 08:57:21 GMT 53.890640 -3.117920 40,000 154 479 0
2018-07-12 08:57:18 GMT 53.895401 -3.121844 40,000 153 479 0
2018-07-12 08:57:15 GMT 53.899998 -3.125610 40,000 154 479 0
2018-07-12 08:57:12 GMT 53.906937 -3.131417 40,000 154 479 0
2018-07-12 08:57:09 GMT 53.914902 -3.137931 40,000 154 479 0
2018-07-12 08:57:06 GMT 53.921040 -3.143059 40,000 153 479 0
2018-07-12 08:57:03 GMT 53.926392 -3.147505 40,000 154 479 0
2018-07-12 08:57:00 GMT 53.930161 -3.150653 40,000 154 479 0
2018-07-12 08:56:57 GMT 53.938168 -3.157196 40,000 154 479 0
2018-07-12 08:56:54 GMT 53.946304 -3.163906 40,000 154 479 0
2018-07-12 08:56:50 GMT 53.951843 -3.168457 40,000 154 479 0
2018-07-12 08:56:46 GMT 53.959675 -3.174968 40,000 154 479 0
2018-07-12 08:56:43 GMT 53.964752 -3.179169 40,000 154 479 0
2018-07-12 08:56:40 GMT 53.970932 -3.184230 40,000 154 479 0
2018-07-12 08:56:37 GMT 53.979183 -3.191044 40,000 154 479 0
2018-07-12 08:56:34 GMT 53.983292 -3.194510 40,000 153 479 0
2018-07-12 08:56:31 GMT 53.988464 -3.198748 40,000 153 479 0
2018-07-12 08:56:28 GMT 53.996384 -3.205340 40,000 153 479 0
2018-07-12 08:56:25 GMT 54.001602 -3.209656 40,000 153 479 0
2018-07-12 08:56:22 GMT 54.008183 -3.215117 40,000 153 479 0
2018-07-12 08:56:19 GMT 54.014935 -3.220691 40,000 154 479 0
2018-07-12 08:56:16 GMT 54.019135 -3.224173 40,000 154 479 0
2018-07-12 08:56:13 GMT 54.024719 -3.228803 40,000 154 480 0
2018-07-12 08:56:10 GMT 54.030716 -3.233747 40,000 154 480 0
2018-07-12 08:56:07 GMT 54.037079 -3.239005 40,000 154 479 0
2018-07-12 08:56:04 GMT 54.042446 -3.243471 40,000 154 479 0
2018-07-12 08:56:01 GMT 54.049438 -3.249128 40,000 154 479 0
2018-07-12 08:55:58 GMT 54.056412 -3.254861 39,975 154 479 0
2018-07-12 08:55:55 GMT 54.059952 -3.257769 40,000 154 480 0
2018-07-12 08:55:52 GMT 54.066879 -3.263410 40,000 154 480 0
2018-07-12 08:55:49 GMT 54.072876 -3.268276 40,000 154 479 0
2018-07-12 08:55:46 GMT 54.078506 -3.272906 40,000 154 479 -64
2018-07-12 08:55:43 GMT 54.084667 -3.277884 40,000 154 479 64
2018-07-12 08:55:40 GMT 54.089836 -3.282085 40,000 154 479 64
2018-07-12 08:55:37 GMT 54.096451 -3.287423 40,000 156 479 0
2018-07-12 08:55:34 GMT 54.102859 -3.292446 40,000 158 478 0
2018-07-12 08:55:31 GMT 54.110367 -3.297999 39,975 159 477 0
2018-07-12 08:55:28 GMT 54.114716 -3.300999 40,000 158 477 0
2018-07-12 08:55:25 GMT 54.120895 -3.305080 39,975 159 477 0
2018-07-12 08:55:22 GMT 54.127312 -3.309227 40,000 159 477 0
2018-07-12 08:55:18 GMT 54.135830 -3.314801 40,000 159 477 0
2018-07-12 08:55:15 GMT 54.141815 -3.318656 40,000 159 477 0
2018-07-12 08:55:12 GMT 54.148819 -3.323207 40,000 159 477 0
2018-07-12 08:55:08 GMT 54.157837 -3.329093 40,000 159 477 0
2018-07-12 08:55:05 GMT 54.161224 -3.331290 40,000 159 477 0
2018-07-12 08:55:02 GMT 54.167580 -3.335482 40,000 159 477 0
2018-07-12 08:54:59 GMT 54.175140 -3.340393 40,000 159 477 0
2018-07-12 08:54:56 GMT 54.180542 -3.343924 40,000 159 477 0
2018-07-12 08:54:53 GMT 54.186943 -3.348083 40,000 159 477 0
2018-07-12 08:54:50 GMT 54.192669 -3.351880 40,000 159 477 0
2018-07-12 08:54:47 GMT 54.199081 -3.356009 39,975 159 477 0
2018-07-12 08:54:44 GMT 54.205051 -3.359878 40,000 159 477 0
2018-07-12 08:54:41 GMT 54.211807 -3.364328 40,000 159 477 0
2018-07-12 08:54:38 GMT 54.217529 -3.368094 40,000 158 478 0
2018-07-12 08:54:35 GMT 54.223663 -3.372096 40,000 158 478 0
2018-07-12 08:54:32 GMT 54.231537 -3.377354 40,000 158 478 0
2018-07-12 08:54:29 GMT 54.237919 -3.381527 40,000 158 478 0
2018-07-12 08:54:26 GMT 54.243805 -3.385359 40,000 159 477 0
2018-07-12 08:54:23 GMT 54.247742 -3.387909 40,000 159 477 0
2018-07-12 08:54:20 GMT 54.254307 -3.392271 40,000 159 477 0
2018-07-12 08:54:17 GMT 54.260868 -3.396553 40,000 159 477 0
2018-07-12 08:54:14 GMT 54.267242 -3.400739 40,000 159 477 0
2018-07-12 08:54:11 GMT 54.274883 -3.405762 40,000 159 477 0
2018-07-12 08:54:07 GMT 54.281250 -3.409962 40,000 159 477 0
2018-07-12 08:54:04 GMT 54.289032 -3.415052 40,000 159 477 0
2018-07-12 08:54:01 GMT 54.294201 -3.418413 40,000 159 477 0
2018-07-12 08:53:58 GMT 54.300156 -3.422322 39,975 159 477 0
2018-07-12 08:53:55 GMT 54.305374 -3.425737 39,975 159 477 0
2018-07-12 08:53:52 GMT 54.313751 -3.431289 39,975 159 477 0
2018-07-12 08:53:49 GMT 54.317917 -3.434035 40,000 159 477 0
2018-07-12 08:53:46 GMT 54.324738 -3.438471 39,975 159 477 0
2018-07-12 08:53:43 GMT 54.330688 -3.442356 40,000 158 476 0
2018-07-12 08:53:40 GMT 54.336365 -3.446153 40,000 158 476 0
2018-07-12 08:53:37 GMT 54.344009 -3.451161 40,000 158 476 0
2018-07-12 08:53:34 GMT 54.349831 -3.455034 40,000 158 476 0
2018-07-12 08:53:31 GMT 54.354813 -3.458270 40,000 158 477 0
2018-07-12 08:53:28 GMT 54.363144 -3.463763 40,000 158 476 0
2018-07-12 08:53:25 GMT 54.366543 -3.466020 40,000 158 476 0
2018-07-12 08:53:22 GMT 54.375526 -3.471929 40,000 158 476 0
2018-07-12 08:53:19 GMT 54.380928 -3.475508 40,000 158 477 0
2018-07-12 08:53:16 GMT 54.386654 -3.479254 40,000 158 477 0
2018-07-12 08:53:13 GMT 54.392426 -3.483082 40,000 158 477 0
2018-07-12 08:53:10 GMT 54.396988 -3.486078 40,000 158 477 0
2018-07-12 08:53:07 GMT 54.404617 -3.491148 39,975 158 477 0
2018-07-12 08:53:04 GMT 54.410908 -3.495317 40,000 158 477 0
2018-07-12 08:53:01 GMT 54.417843 -3.499895 40,000 158 477 0
2018-07-12 08:52:58 GMT 54.423244 -3.503473 40,000 158 477 0
2018-07-12 08:52:55 GMT 54.431168 -3.508759 40,000 158 477 0
2018-07-12 08:52:52 GMT 54.435116 -3.511380 40,000 158 477 0
2018-07-12 08:52:49 GMT 54.442703 -3.516433 40,000 158 477 0
2018-07-12 08:52:46 GMT 54.450302 -3.521441 40,000 158 477 0
2018-07-12 08:52:43 GMT 54.453922 -3.523865 40,000 158 477 0
2018-07-12 08:52:40 GMT 54.460953 -3.528526 40,000 158 477 0
2018-07-12 08:52:37 GMT 54.465839 -3.531772 40,000 158 477 0
2018-07-12 08:52:34 GMT 54.472172 -3.535933 39,975 158 477 0
2018-07-12 08:52:31 GMT 54.477951 -3.539860 40,000 158 477 0
2018-07-12 08:52:28 GMT 54.484955 -3.544464 39,975 158 477 0
2018-07-12 08:52:25 GMT 54.492092 -3.549250 39,975 158 476 0
2018-07-12 08:52:22 GMT 54.496811 -3.552300 39,975 158 476 0
2018-07-12 08:52:19 GMT 54.504105 -3.557157 40,000 158 476 0
2018-07-12 08:52:15 GMT 54.512253 -3.562567 40,000 158 475 0
2018-07-12 08:52:12 GMT 54.516720 -3.565480 40,000 158 476 0
2018-07-12 08:52:09 GMT 54.523911 -3.570234 40,000 158 476 0
2018-07-12 08:52:06 GMT 54.530685 -3.574718 40,000 158 476 0
2018-07-12 08:52:03 GMT 54.536087 -3.578297 40,000 158 476 0
2018-07-12 08:52:00 GMT 54.541348 -3.581876 40,000 158 476 0
2018-07-12 08:51:57 GMT 54.548328 -3.586454 40,000 158 476 0
2018-07-12 08:51:54 GMT 54.555496 -3.591237 40,000 158 475 0
2018-07-12 08:51:51 GMT 54.560806 -3.594791 39,975 158 475 0
2018-07-12 08:51:48 GMT 54.566940 -3.598911 40,000 158 475 0
2018-07-12 08:51:45 GMT 54.574310 -3.603839 40,000 158 475 0
2018-07-12 08:51:42 GMT 54.578064 -3.606343 40,000 158 475 0
2018-07-12 08:51:38 GMT 54.586365 -3.611839 40,000 158 475 0
2018-07-12 08:51:35 GMT 54.592880 -3.616250 40,000 158 475 0
2018-07-12 08:51:32 GMT 54.600281 -3.621160 40,000 158 475 0
2018-07-12 08:51:29 GMT 54.607220 -3.625821 39,975 158 475 0
2018-07-12 08:51:26 GMT 54.614685 -3.630820 40,000 158 474 0
2018-07-12 08:51:23 GMT 54.618805 -3.633566 39,975 158 474 0
2018-07-12 08:51:20 GMT 54.623466 -3.636641 39,975 158 474 0
2018-07-12 08:51:17 GMT 54.630447 -3.641385 40,000 158 474 0
2018-07-12 08:51:14 GMT 54.636887 -3.645684 40,000 158 473 0
2018-07-12 08:51:11 GMT 54.642197 -3.649238 40,000 158 473 0
2018-07-12 08:51:08 GMT 54.650253 -3.654570 40,000 158 473 0
2018-07-12 08:51:05 GMT 54.654694 -3.657559 40,000 158 473 0
2018-07-12 08:51:02 GMT 54.660004 -3.661113 40,000 158 473 0
2018-07-12 08:50:59 GMT 54.668480 -3.666770 40,000 158 473 0
2018-07-12 08:50:55 GMT 54.675137 -3.671181 39,975 158 473 0
2018-07-12 08:50:52 GMT 54.680119 -3.674594 40,000 158 473 0
2018-07-12 08:50:49 GMT 54.686218 -3.678672 40,000 158 472 0
2018-07-12 08:50:45 GMT 54.694408 -3.684165 40,000 158 472 0
2018-07-12 08:50:42 GMT 54.702511 -3.689658 40,000 158 472 0
2018-07-12 08:50:39 GMT 54.707336 -3.692860 40,000 158 473 0
2018-07-12 08:50:35 GMT 54.714336 -3.697648 40,000 158 472 0
2018-07-12 08:50:32 GMT 54.720852 -3.701976 39,975 158 472 0
2018-07-12 08:50:29 GMT 54.728115 -3.706887 40,000 158 472 0
2018-07-12 08:50:26 GMT 54.733704 -3.710632 40,000 158 472 0
2018-07-12 08:50:23 GMT 54.739792 -3.714752 39,975 158 472 0
2018-07-12 08:50:20 GMT 54.747025 -3.719599 39,975 158 472 0
2018-07-12 08:50:17 GMT 54.752701 -3.723396 39,975 158 472 0
2018-07-12 08:50:14 GMT 54.757141 -3.726304 39,975 158 472 0
2018-07-12 08:50:11 GMT 54.764877 -3.731555 39,975 158 471 0
2018-07-12 08:50:08 GMT 54.769043 -3.734301 40,000 158 470 0
2018-07-12 08:50:05 GMT 54.777786 -3.740198 40,000 158 471 0
2018-07-12 08:50:02 GMT 54.781860 -3.742945 40,000 158 471 0
2018-07-12 08:49:59 GMT 54.789139 -3.747873 40,000 158 471 0
2018-07-12 08:49:55 GMT 54.796509 -3.752881 40,000 158 471 0
2018-07-12 08:49:52 GMT 54.801899 -3.756492 40,000 158 470 0
2018-07-12 08:49:49 GMT 54.808788 -3.761153 40,000 158 470 0
2018-07-12 08:49:46 GMT 54.815460 -3.765645 40,000 158 470 0
2018-07-12 08:49:43 GMT 54.821312 -3.769642 40,000 158 471 0
2018-07-12 08:49:40 GMT 54.828049 -3.774208 40,000 158 471 0
2018-07-12 08:49:36 GMT 54.833836 -3.778132 40,000 158 470 0
2018-07-12 08:49:33 GMT 54.840958 -3.782932 40,000 158 471 0
2018-07-12 08:49:30 GMT 54.847195 -3.787120 40,000 158 471 0
2018-07-12 08:49:27 GMT 54.851711 -3.790200 40,000 158 470 0
2018-07-12 08:49:23 GMT 54.861603 -3.796907 39,975 158 470 0
2018-07-12 08:49:20 GMT 54.867260 -3.800687 39,975 158 470 0
2018-07-12 08:49:17 GMT 54.873871 -3.805228 39,975 158 470 0
2018-07-12 08:49:13 GMT 54.881790 -3.810559 39,975 158 470 0
2018-07-12 08:49:10 GMT 54.888020 -3.814836 39,975 158 471 0
2018-07-12 08:49:07 GMT 54.893967 -3.818799 39,975 158 470 0
2018-07-12 08:49:04 GMT 54.899426 -3.822493 39,975 158 471 0
2018-07-12 08:49:01 GMT 54.906052 -3.827039 39,975 158 471 0
2018-07-12 08:48:58 GMT 54.911316 -3.830593 40,000 158 471 0
2018-07-12 08:48:55 GMT 54.919373 -3.836086 40,000 158 471 0
2018-07-12 08:48:52 GMT 54.925728 -3.840388 40,000 158 470 0
2018-07-12 08:48:49 GMT 54.929684 -3.843051 40,000 158 470 0
2018-07-12 08:48:46 GMT 54.935505 -3.846963 40,000 158 470 0
2018-07-12 08:48:43 GMT 54.941883 -3.851374 40,000 158 470 0
2018-07-12 08:48:40 GMT 54.948944 -3.856120 40,000 158 470 0
2018-07-12 08:48:37 GMT 54.952927 -3.858867 40,000 158 470 0
2018-07-12 08:48:34 GMT 54.961292 -3.864524 40,000 158 470 0
2018-07-12 08:48:31 GMT 54.969254 -3.869934 40,000 158 470 0
2018-07-12 08:48:28 GMT 54.972141 -3.871932 40,000 158 470 0
2018-07-12 08:48:25 GMT 54.978836 -3.876477 40,000 158 470 0
2018-07-12 08:48:21 GMT 54.986526 -3.881728 40,000 158 470 0
2018-07-12 08:48:18 GMT 54.994625 -3.887163 40,000 158 470 0
2018-07-12 08:48:15 GMT 54.999142 -3.890242 40,000 158 470 0
2018-07-12 08:48:12 GMT 55.006592 -3.895319 40,000 158 470 0
2018-07-12 08:48:09 GMT 55.010548 -3.898066 40,000 158 470 0
2018-07-12 08:48:06 GMT 55.016418 -3.902004 40,000 158 470 0
2018-07-12 08:48:02 GMT 55.024372 -3.907471 40,000 158 470 0
2018-07-12 08:47:58 GMT 55.035217 -3.914878 40,000 158 470 0
2018-07-12 08:47:55 GMT 55.037685 -3.916626 40,000 158 470 0
2018-07-12 08:47:52 GMT 55.045788 -3.922119 40,000 158 470 0
2018-07-12 08:47:49 GMT 55.050842 -3.925593 40,000 158 470 0
2018-07-12 08:47:46 GMT 55.056309 -3.929360 40,000 158 470 0
2018-07-12 08:47:43 GMT 55.063057 -3.934021 40,000 158 470 0
2018-07-12 08:47:40 GMT 55.072414 -3.940430 40,000 158 470 0
2018-07-12 08:47:37 GMT 55.075424 -3.942476 40,000 158 470 0
2018-07-12 08:47:34 GMT 55.082748 -3.947485 40,000 158 470 0
2018-07-12 08:47:31 GMT 55.088104 -3.951120 40,000 158 470 0
2018-07-12 08:47:28 GMT 55.092804 -3.954412 39,975 158 470 0
2018-07-12 08:47:25 GMT 55.099926 -3.959240 40,000 158 471 0
2018-07-12 08:47:22 GMT 55.106598 -3.963803 40,000 158 471 0
2018-07-12 08:47:19 GMT 55.112450 -3.967896 40,000 158 471 0
2018-07-12 08:47:16 GMT 55.117710 -3.971474 40,000 158 471 0
2018-07-12 08:47:13 GMT 55.125641 -3.976889 40,000 158 471 0
2018-07-12 08:47:09 GMT 55.132599 -3.981655 40,000 158 471 0
2018-07-12 08:47:06 GMT 55.138550 -3.985775 40,000 158 471 0
2018-07-12 08:47:03 GMT 55.145416 -3.990461 40,000 158 471 0
2018-07-12 08:47:00 GMT 55.150482 -3.993946 40,000 158 471 0
2018-07-12 08:46:57 GMT 55.155788 -3.997609 40,000 158 471 0
2018-07-12 08:46:54 GMT 55.162033 -4.001932 40,000 158 471 0
2018-07-12 08:46:50 GMT 55.170685 -4.007846 40,000 158 471 0
2018-07-12 08:46:47 GMT 55.175400 -4.011141 39,975 158 471 0
2018-07-12 08:46:44 GMT 55.182632 -4.016149 40,000 158 471 0
2018-07-12 08:46:41 GMT 55.188721 -4.020269 40,000 158 471 0
2018-07-12 08:46:38 GMT 55.195587 -4.025035 40,000 158 471 0
2018-07-12 08:46:35 GMT 55.202499 -4.029801 39,975 158 471 0
2018-07-12 08:46:31 GMT 55.209366 -4.034567 39,975 158 471 0
2018-07-12 08:46:28 GMT 55.215408 -4.038687 40,000 158 471 0
2018-07-12 08:46:25 GMT 55.221863 -4.043211 40,000 158 471 0
2018-07-12 08:46:22 GMT 55.227997 -4.047412 40,000 158 471 0
2018-07-12 08:46:19 GMT 55.232025 -4.050158 39,975 158 471 0
2018-07-12 08:46:16 GMT 55.240330 -4.055869 40,000 158 471 0
2018-07-12 08:46:13 GMT 55.245590 -4.059531 40,000 158 471 0
2018-07-12 08:46:10 GMT 55.251640 -4.063693 39,975 158 469 0
2018-07-12 08:46:07 GMT 55.257156 -4.067446 40,000 158 470 0
2018-07-12 08:46:04 GMT 55.263416 -4.071849 40,000 158 470 0
2018-07-12 08:46:00 GMT 55.271893 -4.077676 40,000 158 470 0
2018-07-12 08:45:57 GMT 55.278732 -4.082420 40,000 158 471 0
2018-07-12 08:45:54 GMT 55.284576 -4.086510 40,000 158 470 0
2018-07-12 08:45:50 GMT 55.292221 -4.091761 40,000 158 470 0
2018-07-12 08:45:47 GMT 55.298309 -4.096042 40,000 158 469 0
2018-07-12 08:45:44 GMT 55.304569 -4.100314 39,975 158 469 0
2018-07-12 08:45:41 GMT 55.312206 -4.105641 40,000 158 469 0
2018-07-12 08:45:38 GMT 55.316254 -4.108471 40,000 158 469 0
2018-07-12 08:45:35 GMT 55.321888 -4.112382 40,000 158 469 0
2018-07-12 08:45:32 GMT 55.327789 -4.116480 40,000 158 469 0
2018-07-12 08:45:29 GMT 55.334782 -4.121371 40,000 158 469 0
2018-07-12 08:45:25 GMT 55.344223 -4.127870 40,000 158 469 0
2018-07-12 08:45:22 GMT 55.348469 -4.130859 40,000 158 469 0
2018-07-12 08:45:17 GMT 55.357132 -4.136837 40,000 158 469 0
2018-07-12 08:45:14 GMT 55.365459 -4.142595 40,000 158 469 0
2018-07-12 08:45:11 GMT 55.369419 -4.145425 40,000 158 469 0
2018-07-12 08:45:08 GMT 55.376213 -4.150169 40,000 158 469 0
2018-07-12 08:45:04 GMT 55.385376 -4.156467 40,000 158 469 0
2018-07-12 08:45:01 GMT 55.390594 -4.160183 39,975 158 468 0
2018-07-12 08:44:57 GMT 55.398193 -4.165515 40,000 158 469 0
2018-07-12 08:44:54 GMT 55.404236 -4.169635 40,000 158 467 0
2018-07-12 08:44:51 GMT 55.410477 -4.173972 40,000 158 468 0
2018-07-12 08:44:47 GMT 55.417320 -4.178800 40,000 158 468 0
2018-07-12 08:44:44 GMT 55.426445 -4.185125 40,000 158 467 0
2018-07-12 08:44:41 GMT 55.430328 -4.187891 40,000 158 468 0
2018-07-12 08:44:38 GMT 55.436325 -4.192092 39,975 158 467 0
2018-07-12 08:44:35 GMT 55.442368 -4.196212 40,000 158 466 0
2018-07-12 08:44:31 GMT 55.451523 -4.202603 40,000 158 466 0
2018-07-12 08:44:28 GMT 55.457108 -4.206515 40,000 158 466 0
2018-07-12 08:44:24 GMT 55.464340 -4.211592 39,975 158 467 0
2018-07-12 08:44:21 GMT 55.472485 -4.217291 40,000 158 467 0
2018-07-12 08:44:18 GMT 55.477325 -4.220724 40,000 158 467 0
2018-07-12 08:44:13 GMT 55.487183 -4.227572 40,000 158 466 0
2018-07-12 08:44:10 GMT 55.494968 -4.233084 40,000 158 466 0
2018-07-12 08:44:07 GMT 55.499763 -4.236431 40,000 158 466 0
2018-07-12 08:44:03 GMT 55.505302 -4.240294 40,000 158 466 0
2018-07-12 08:44:00 GMT 55.512566 -4.245443 40,000 158 466 0
2018-07-12 08:43:57 GMT 55.519363 -4.250164 40,000 158 466 0
2018-07-12 08:43:54 GMT 55.526531 -4.255228 40,000 158 466 0
2018-07-12 08:43:51 GMT 55.531906 -4.259033 40,000 158 465 0
2018-07-12 08:43:47 GMT 55.538681 -4.263777 40,000 158 466 0
2018-07-12 08:43:44 GMT 55.545666 -4.268703 40,000 158 465 0
2018-07-12 08:43:40 GMT 55.552643 -4.273598 40,000 158 465 0
2018-07-12 08:43:37 GMT 55.558838 -4.277973 40,000 158 465 0
2018-07-12 08:43:34 GMT 55.564053 -4.281578 40,000 158 465 0
2018-07-12 08:43:31 GMT 55.570633 -4.286249 40,000 158 465 0
2018-07-12 08:43:28 GMT 55.578018 -4.291449 40,000 158 465 0
2018-07-12 08:43:24 GMT 55.584721 -4.296169 39,975 158 465 0
2018-07-12 08:43:21 GMT 55.590591 -4.300232 39,975 158 465 0
2018-07-12 08:43:18 GMT 55.595764 -4.303894 39,975 158 465 0
2018-07-12 08:43:15 GMT 55.602173 -4.308388 39,975 158 465 0
2018-07-12 08:43:12 GMT 55.610138 -4.313965 40,000 158 466 0
2018-07-12 08:43:09 GMT 55.616135 -4.318210 40,000 158 465 0
2018-07-12 08:43:06 GMT 55.620941 -4.321539 40,000 158 466 0
2018-07-12 08:43:03 GMT 55.626667 -4.325609 40,000 158 466 0
2018-07-12 08:43:00 GMT 55.631832 -4.329300 40,000 158 466 0
2018-07-12 08:42:57 GMT 55.639420 -4.334621 40,000 158 466 0
2018-07-12 08:42:54 GMT 55.643799 -4.337711 40,000 158 466 0
2018-07-12 08:42:51 GMT 55.651756 -4.343376 39,975 158 466 0
2018-07-12 08:42:48 GMT 55.655762 -4.346209 39,975 158 466 0
2018-07-12 08:42:45 GMT 55.662140 -4.350758 39,975 158 466 0
2018-07-12 08:42:42 GMT 55.668564 -4.355221 40,000 158 466 0
2018-07-12 08:42:38 GMT 55.676331 -4.360740 40,000 158 466 0
2018-07-12 08:42:35 GMT 55.684799 -4.366733 39,975 158 466 0
2018-07-12 08:42:32 GMT 55.688736 -4.369562 40,000 158 466 0
2018-07-12 08:42:29 GMT 55.693703 -4.373074 40,000 158 466 0
2018-07-12 08:42:26 GMT 55.698959 -4.376764 40,000 158 466 0
2018-07-12 08:42:23 GMT 55.707092 -4.382546 40,000 158 466 0
2018-07-12 08:42:19 GMT 55.713913 -4.387373 40,000 158 467 0
2018-07-12 08:42:16 GMT 55.720097 -4.391785 40,000 158 467 0
2018-07-12 08:42:13 GMT 55.727310 -4.396935 40,000 158 467 0
2018-07-12 08:42:10 GMT 55.733318 -4.401140 40,000 158 467 0
2018-07-12 08:42:07 GMT 55.738113 -4.404573 40,000 158 467 0
2018-07-12 08:42:04 GMT 55.744354 -4.408930 40,000 158 467 0
2018-07-12 08:42:01 GMT 55.750866 -4.413586 40,000 158 467 0
2018-07-12 08:41:57 GMT 55.757664 -4.418478 40,000 158 467 0
2018-07-12 08:41:54 GMT 55.763901 -4.422829 39,975 158 467 0
2018-07-12 08:41:51 GMT 55.771088 -4.427990 40,000 158 467 0
2018-07-12 08:41:48 GMT 55.776672 -4.431985 40,000 158 467 0
2018-07-12 08:41:45 GMT 55.781158 -4.435147 40,000 158 467 0
2018-07-12 08:41:42 GMT 55.788574 -4.440451 40,000 158 467 0
2018-07-12 08:41:39 GMT 55.795532 -4.445385 40,000 158 467 0
2018-07-12 08:41:36 GMT 55.801575 -4.449713 40,000 158 467 0
2018-07-12 08:41:33 GMT 55.806747 -4.453375 40,000 158 467 0
2018-07-12 08:41:30 GMT 55.812595 -4.457617 40,000 158 468 0
2018-07-12 08:41:26 GMT 55.822556 -4.464655 40,000 158 468 0
2018-07-12 08:41:23 GMT 55.826431 -4.467441 40,000 158 468 0
2018-07-12 08:41:20 GMT 55.834568 -4.473238 40,000 158 468 0
2018-07-12 08:41:17 GMT 55.837734 -4.475555 40,000 158 468 0
2018-07-12 08:41:14 GMT 55.844624 -4.480448 40,000 158 468 0
2018-07-12 08:41:11 GMT 55.850304 -4.484482 40,000 158 468 0
2018-07-12 08:41:08 GMT 55.856964 -4.489247 40,000 158 468 0
2018-07-12 08:41:03 GMT 55.866642 -4.496241 40,000 158 468 0
2018-07-12 08:41:00 GMT 55.872692 -4.500446 40,000 158 468 0
2018-07-12 08:40:57 GMT 55.877537 -4.503965 40,000 158 468 0
2018-07-12 08:40:54 GMT 55.884567 -4.508972 40,000 158 468 0
2018-07-12 08:40:51 GMT 55.891388 -4.513883 40,000 158 468 0
2018-07-12 08:40:47 GMT 55.898392 -4.518900 40,000 157 469 0
2018-07-12 08:40:43 GMT 55.907547 -4.525452 39,975 158 469 0
2018-07-12 08:40:40 GMT 55.913132 -4.529447 39,975 158 469 0
2018-07-12 08:40:37 GMT 55.918083 -4.532976 39,975 158 469 0
2018-07-12 08:40:34 GMT 55.924759 -4.537770 39,975 158 470 0
2018-07-12 08:40:30 GMT 55.932652 -4.543447 40,000 158 469 0
2018-07-12 08:40:27 GMT 55.939270 -4.548173 40,000 158 469 0
2018-07-12 08:40:24 GMT 55.944244 -4.551773 40,000 158 470 0
2018-07-12 08:40:21 GMT 55.951309 -4.556829 40,000 158 470 0
2018-07-12 08:40:18 GMT 55.957306 -4.561157 39,975 157 469 0
2018-07-12 08:40:15 GMT 55.962681 -4.564991 39,975 157 469 0
2018-07-12 08:40:12 GMT 55.968521 -4.569231 39,975 157 469 0
2018-07-12 08:40:09 GMT 55.974564 -4.573558 40,000 157 469 0
2018-07-12 08:40:06 GMT 55.980972 -4.578219 40,000 157 469 0
2018-07-12 08:40:03 GMT 55.986969 -4.582547 40,000 158 468 0
2018-07-12 08:39:59 GMT 55.996475 -4.589367 40,000 158 468 0
2018-07-12 08:39:54 GMT 56.005226 -4.595633 40,000 158 468 0
2018-07-12 08:39:51 GMT 56.009903 -4.599027 39,975 157 469 0
2018-07-12 08:39:48 GMT 56.016312 -4.603604 40,000 157 469 0
2018-07-12 08:39:45 GMT 56.022545 -4.608078 40,000 157 469 0
2018-07-12 08:39:42 GMT 56.031300 -4.614429 40,000 157 469 0
2018-07-12 08:39:38 GMT 56.037304 -4.618807 40,000 157 469 0
2018-07-12 08:39:34 GMT 56.044563 -4.623957 40,000 157 469 0
2018-07-12 08:39:31 GMT 56.049957 -4.627907 40,000 157 469 0
2018-07-12 08:39:28 GMT 56.057968 -4.633734 40,000 157 469 0
2018-07-12 08:39:24 GMT 56.066849 -4.640142 40,000 157 469 0
2018-07-12 08:39:21 GMT 56.072170 -4.643955 40,000 157 469 0
2018-07-12 08:39:18 GMT 56.078018 -4.648216 40,000 157 469 0
2018-07-12 08:39:13 GMT 56.087486 -4.655027 40,000 157 469 0
2018-07-12 08:39:10 GMT 56.094498 -4.660117 40,000 157 469 0
2018-07-12 08:39:07 GMT 56.098938 -4.663363 40,000 157 469 0
2018-07-12 08:39:03 GMT 56.107132 -4.669275 40,000 157 469 0
2018-07-12 08:39:00 GMT 56.112167 -4.672935 40,000 157 469 0
2018-07-12 08:38:57 GMT 56.118988 -4.677845 39,975 157 469 0
2018-07-12 08:38:54 GMT 56.124985 -4.682257 39,975 157 469 0
2018-07-12 08:38:51 GMT 56.133362 -4.688332 40,000 157 469 0
2018-07-12 08:38:47 GMT 56.140182 -4.693243 39,975 157 469 0
2018-07-12 08:38:44 GMT 56.145081 -4.696822 40,000 157 469 0
2018-07-12 08:38:41 GMT 56.152054 -4.701891 40,000 157 469 0
2018-07-12 08:38:38 GMT 56.157269 -4.705667 40,000 157 469 0
2018-07-12 08:38:34 GMT 56.166641 -4.712469 40,000 157 469 0
2018-07-12 08:38:31 GMT 56.171860 -4.716297 40,000 157 469 0
2018-07-12 08:38:28 GMT 56.177902 -4.720709 40,000 157 468 0
2018-07-12 08:38:24 GMT 56.185665 -4.726353 40,000 157 468 0
2018-07-12 08:38:21 GMT 56.191669 -4.730730 40,000 157 468 0
2018-07-12 08:38:18 GMT 56.197906 -4.735274 40,000 157 468 0
2018-07-12 08:38:15 GMT 56.203728 -4.739571 40,000 157 468 0
2018-07-12 08:38:12 GMT 56.208942 -4.743347 40,000 157 468 0
2018-07-12 08:38:09 GMT 56.215164 -4.747925 40,000 157 468 0
2018-07-12 08:38:06 GMT 56.222763 -4.753418 40,000 157 468 0
2018-07-12 08:38:03 GMT 56.227982 -4.757247 40,000 157 468 0
2018-07-12 08:38:00 GMT 56.235008 -4.762316 40,000 157 468 0
2018-07-12 08:37:56 GMT 56.240799 -4.766568 39,975 157 468 0
2018-07-12 08:37:53 GMT 56.247810 -4.771671 40,000 157 468 0
2018-07-12 08:37:50 GMT 56.253204 -4.775640 40,000 157 468 0
2018-07-12 08:37:47 GMT 56.260197 -4.780684 40,000 157 468 0
2018-07-12 08:37:43 GMT 56.268154 -4.786520 40,000 157 468 0
2018-07-12 08:37:40 GMT 56.274208 -4.790983 40,000 157 468 0
2018-07-12 08:37:37 GMT 56.278164 -4.793816 40,000 157 468 0
2018-07-12 08:37:33 GMT 56.287170 -4.800443 40,000 157 468 0
2018-07-12 08:37:30 GMT 56.294132 -4.805574 40,000 157 468 0
2018-07-12 08:37:27 GMT 56.299942 -4.809765 40,000 157 467 0
2018-07-12 08:37:24 GMT 56.305984 -4.814176 40,000 157 467 0
2018-07-12 08:37:21 GMT 56.310791 -4.817755 40,000 157 467 0
2018-07-12 08:37:18 GMT 56.319736 -4.824286 40,000 157 467 0
2018-07-12 08:37:15 GMT 56.325165 -4.828325 40,000 157 467 0
2018-07-12 08:37:12 GMT 56.330383 -4.832153 40,000 157 467 0
2018-07-12 08:37:09 GMT 56.337204 -4.837147 40,000 157 467 0
2018-07-12 08:37:05 GMT 56.343384 -4.841623 40,000 157 467 0
2018-07-12 08:37:02 GMT 56.349976 -4.846552 40,000 157 467 0
2018-07-12 08:36:59 GMT 56.355927 -4.850880 40,000 157 467 0
2018-07-12 08:36:56 GMT 56.363113 -4.856207 39,975 157 467 0
2018-07-12 08:36:53 GMT 56.370255 -4.861450 40,000 157 467 0
2018-07-12 08:36:49 GMT 56.376663 -4.866111 39,975 157 467 0
2018-07-12 08:36:45 GMT 56.383438 -4.871105 39,975 157 467 0
2018-07-12 08:36:42 GMT 56.391037 -4.876681 39,975 157 467 0
2018-07-12 08:36:39 GMT 56.396408 -4.880590 40,000 157 467 0
2018-07-12 08:36:36 GMT 56.402832 -4.885225 40,000 157 467 0
2018-07-12 08:36:31 GMT 56.412140 -4.892162 39,975 157 467 0
2018-07-12 08:36:28 GMT 56.416992 -4.895574 39,975 157 467 0
2018-07-12 08:36:25 GMT 56.425003 -4.901400 40,000 157 467 0
2018-07-12 08:36:21 GMT 56.432438 -4.906855 40,000 158 466 0
2018-07-12 08:36:18 GMT 56.439423 -4.911887 40,000 158 467 0
2018-07-12 08:36:13 GMT 56.447147 -4.917498 40,000 158 466 0
2018-07-12 08:36:10 GMT 56.453018 -4.921709 40,000 158 467 0
2018-07-12 08:36:07 GMT 56.460159 -4.926869 40,000 158 467 0
2018-07-12 08:36:03 GMT 56.468628 -4.932861 40,000 158 466 0
2018-07-12 08:36:00 GMT 56.473965 -4.936810 40,000 158 467 0
2018-07-12 08:35:57 GMT 56.479340 -4.940685 40,000 158 466 0
2018-07-12 08:35:54 GMT 56.486984 -4.946095 40,000 158 467 0
2018-07-12 08:35:50 GMT 56.495453 -4.952254 39,975 158 466 0
2018-07-12 08:35:47 GMT 56.499435 -4.955084 40,000 158 466 0
2018-07-12 08:35:43 GMT 56.507526 -4.960842 40,000 158 466 0
2018-07-12 08:35:40 GMT 56.513489 -4.965154 39,975 158 466 0
2018-07-12 08:35:37 GMT 56.521454 -4.970814 40,000 158 466 64
2018-07-12 08:35:33 GMT 56.529785 -4.976890 40,000 153 465 0
2018-07-12 08:35:29 GMT 56.536514 -4.981967 40,000 155 465 0
2018-07-12 08:35:25 GMT 56.543373 -4.987621 40,000 153 466 0
2018-07-12 08:35:22 GMT 56.549744 -4.993203 40,000 152 466 0
2018-07-12 08:35:19 GMT 56.556873 -4.999895 40,000 152 465 0
2018-07-12 08:35:16 GMT 56.560642 -5.003500 39,975 152 465 0
2018-07-12 08:35:12 GMT 56.568977 -5.011396 40,000 152 465 0
2018-07-12 08:35:08 GMT 56.575493 -5.017662 40,000 152 465 0
2018-07-12 08:35:05 GMT 56.580009 -5.021954 40,000 152 465 0
2018-07-12 08:35:01 GMT 56.589088 -5.030708 40,000 152 465 0
2018-07-12 08:34:58 GMT 56.596893 -5.038090 40,000 152 465 0
2018-07-12 08:34:55 GMT 56.599792 -5.040864 40,000 152 464 0
2018-07-12 08:34:51 GMT 56.608292 -5.048990 40,000 152 464 0
2018-07-12 08:34:48 GMT 56.613388 -5.053888 40,000 152 464 0
2018-07-12 08:34:45 GMT 56.618958 -5.059204 40,000 152 465 0
2018-07-12 08:34:40 GMT 56.629726 -5.069570 40,000 152 464 0
2018-07-12 08:34:37 GMT 56.634197 -5.073912 40,000 152 464 0
2018-07-12 08:34:34 GMT 56.638760 -5.078253 40,000 152 464 0
2018-07-12 08:34:30 GMT 56.648483 -5.087528 39,975 152 463 0
2018-07-12 08:34:27 GMT 56.653793 -5.092678 39,975 152 464 0
2018-07-12 08:34:24 GMT 56.658077 -5.096770 40,000 152 464 0
2018-07-12 08:34:20 GMT 56.666454 -5.104744 40,000 152 463 0
2018-07-12 08:34:17 GMT 56.673298 -5.111301 39,975 152 463 0
2018-07-12 08:34:14 GMT 56.678009 -5.115852 39,975 152 463 0
2018-07-12 08:34:10 GMT 56.685402 -5.122907 39,975 152 463 0
2018-07-12 08:34:07 GMT 56.691650 -5.128899 40,000 152 463 0
2018-07-12 08:34:04 GMT 56.697327 -5.134392 40,000 152 463 0
2018-07-12 08:34:00 GMT 56.704258 -5.141070 40,000 152 463 0
2018-07-12 08:33:57 GMT 56.711243 -5.147781 40,000 152 463 0
2018-07-12 08:33:54 GMT 56.715988 -5.152322 40,000 152 463 0
2018-07-12 08:33:51 GMT 56.721497 -5.157652 39,975 152 463 0
2018-07-12 08:33:48 GMT 56.728092 -5.163929 39,975 152 463 0
2018-07-12 08:33:44 GMT 56.735779 -5.171385 40,000 152 463 0
2018-07-12 08:33:39 GMT 56.743698 -5.179024 40,000 152 462 0
2018-07-12 08:33:36 GMT 56.749554 -5.184661 40,000 152 463 0
2018-07-12 08:33:33 GMT 56.754959 -5.189838 40,000 152 463 0
2018-07-12 08:33:28 GMT 56.766678 -5.201168 40,000 151 462 0
2018-07-12 08:33:24 GMT 56.771988 -5.206318 40,000 151 462 0
2018-07-12 08:33:21 GMT 56.778351 -5.212498 40,000 151 462 0
2018-07-12 08:33:18 GMT 56.783443 -5.217443 40,000 152 463 0
2018-07-12 08:33:15 GMT 56.788879 -5.222712 40,000 152 463 0
2018-07-12 08:33:12 GMT 56.794235 -5.227861 40,000 152 463 0
2018-07-12 08:33:09 GMT 56.802296 -5.235606 40,000 152 463 0
2018-07-12 08:33:06 GMT 56.806961 -5.240221 40,000 152 463 0
2018-07-12 08:33:03 GMT 56.811172 -5.244255 40,000 152 463 0
2018-07-12 08:33:00 GMT 56.817005 -5.249959 40,000 152 463 0
2018-07-12 08:32:57 GMT 56.822845 -5.255585 40,000 152 463 0
2018-07-12 08:32:54 GMT 56.830227 -5.262717 40,000 152 463 0
2018-07-12 08:32:51 GMT 56.833904 -5.266350 40,000 151 463 0
2018-07-12 08:32:47 GMT 56.842655 -5.274766 40,000 151 463 0
2018-07-12 08:32:44 GMT 56.847336 -5.279360 40,000 151 463 0
2018-07-12 08:32:41 GMT 56.854156 -5.285969 40,000 151 463 0
2018-07-12 08:32:37 GMT 56.860718 -5.292398 40,000 151 463 0
2018-07-12 08:32:34 GMT 56.866928 -5.298414 40,000 151 463 0
2018-07-12 08:32:30 GMT 56.872776 -5.304093 40,000 151 463 0
2018-07-12 08:32:26 GMT 56.884136 -5.315168 40,000 151 463 0
2018-07-12 08:32:23 GMT 56.888603 -5.319509 40,000 151 463 64
2018-07-12 08:32:20 GMT 56.892929 -5.323734 40,000 151 463 0
2018-07-12 08:32:17 GMT 56.898560 -5.329227 39,975 151 463 0
2018-07-12 08:32:14 GMT 56.904968 -5.335493 39,975 151 463 0
2018-07-12 08:32:10 GMT 56.911598 -5.341925 40,000 151 463 0
2018-07-12 08:32:06 GMT 56.918396 -5.348481 39,975 151 463 0
2018-07-12 08:32:03 GMT 56.924820 -5.354772 40,000 151 463 0
2018-07-12 08:31:59 GMT 56.932205 -5.362015 39,975 151 463 0
2018-07-12 08:31:56 GMT 56.937717 -5.367353 40,000 151 463 0
2018-07-12 08:31:53 GMT 56.943443 -5.372935 40,000 151 463 0
2018-07-12 08:31:50 GMT 56.949402 -5.378782 39,975 151 463 0
2018-07-12 08:31:47 GMT 56.956944 -5.386136 40,000 151 463 0
2018-07-12 08:31:43 GMT 56.962948 -5.391984 39,975 151 463 0
2018-07-12 08:31:38 GMT 56.971561 -5.400400 39,975 151 463 0
2018-07-12 08:31:35 GMT 56.978439 -5.407076 39,975 151 463 0
2018-07-12 08:31:32 GMT 56.982498 -5.411121 39,975 151 463 0
2018-07-12 08:31:28 GMT 56.989883 -5.418320 40,000 151 463 0
2018-07-12 08:31:25 GMT 56.995720 -5.423968 40,000 151 463 0
2018-07-12 08:31:22 GMT 57.001724 -5.429904 39,975 151 463 0
2018-07-12 08:31:19 GMT 57.008606 -5.436602 40,000 151 463 0
2018-07-12 08:31:16 GMT 57.014946 -5.442840 40,000 151 463 0
2018-07-12 08:31:12 GMT 57.020950 -5.448776 40,000 151 462 0
2018-07-12 08:31:09 GMT 57.026585 -5.454269 40,000 151 463 0
2018-07-12 08:31:05 GMT 57.033691 -5.461235 40,000 151 463 0
2018-07-12 08:31:01 GMT 57.040596 -5.468002 40,000 151 463 0
2018-07-12 08:30:57 GMT 57.049026 -5.476255 40,000 151 463 0
2018-07-12 08:30:54 GMT 57.055214 -5.482355 40,000 151 463 0
2018-07-12 08:30:51 GMT 57.060013 -5.487156 40,000 151 463 0
2018-07-12 08:30:48 GMT 57.064663 -5.491658 40,000 151 463 0
2018-07-12 08:30:44 GMT 57.072903 -5.499809 40,000 151 463 0
2018-07-12 08:30:41 GMT 57.079514 -5.506296 40,000 151 463 0
2018-07-12 08:30:38 GMT 57.084171 -5.510884 40,000 151 463 0
2018-07-12 08:30:35 GMT 57.090313 -5.516909 40,000 151 463 0
2018-07-12 08:30:31 GMT 57.099533 -5.526034 40,000 151 463 0
2018-07-12 08:30:28 GMT 57.103638 -5.530071 40,000 151 463 0
2018-07-12 08:30:24 GMT 57.110985 -5.537287 40,000 151 462 0
2018-07-12 08:30:20 GMT 57.119476 -5.545692 40,000 151 462 0
2018-07-12 08:30:15 GMT 57.130302 -5.556424 40,000 151 462 0
2018-07-12 08:30:11 GMT 57.137611 -5.563601 40,000 151 462 0
2018-07-12 08:30:08 GMT 57.142826 -5.568828 40,000 151 462 0
2018-07-12 08:30:03 GMT 57.150414 -5.576270 40,000 151 462 0
2018-07-12 08:30:00 GMT 57.156601 -5.582342 39,975 151 462 0
2018-07-12 08:29:57 GMT 57.161633 -5.587345 40,000 151 462 0
2018-07-12 08:29:53 GMT 57.169083 -5.594699 40,000 151 462 0
2018-07-12 08:29:49 GMT 57.175831 -5.601521 40,000 151 462 0
2018-07-12 08:29:46 GMT 57.182007 -5.607491 40,000 151 462 0
2018-07-12 08:29:42 GMT 57.191658 -5.617026 40,000 151 462 0
2018-07-12 08:29:39 GMT 57.195648 -5.621052 40,000 151 462 0
2018-07-12 08:29:36 GMT 57.201714 -5.627038 40,000 151 462 0
2018-07-12 08:29:33 GMT 57.207439 -5.632797 40,000 151 462 0
2018-07-12 08:29:29 GMT 57.213863 -5.639176 40,000 151 462 0
2018-07-12 08:29:25 GMT 57.221638 -5.646884 40,000 151 462 0
2018-07-12 08:29:22 GMT 57.227272 -5.652466 40,000 151 462 0
2018-07-12 08:29:19 GMT 57.233459 -5.658646 40,000 151 462 0
2018-07-12 08:29:15 GMT 57.241142 -5.666287 40,000 151 462 0
2018-07-12 08:29:12 GMT 57.245728 -5.670834 40,000 151 462 0
2018-07-12 08:29:09 GMT 57.252182 -5.677185 40,000 151 462 0
2018-07-12 08:29:03 GMT 57.265118 -5.690032 40,000 151 461 0
2018-07-12 08:28:58 GMT 57.271450 -5.696411 40,000 151 461 0
2018-07-12 08:28:52 GMT 57.284252 -5.709169 40,000 151 461 0
2018-07-12 08:28:48 GMT 57.290630 -5.715549 40,000 151 461 0
2018-07-12 08:28:44 GMT 57.298279 -5.723190 40,000 151 461 0
2018-07-12 08:28:41 GMT 57.304367 -5.729284 40,000 151 460 0
2018-07-12 08:28:38 GMT 57.309994 -5.734952 40,000 151 461 0
2018-07-12 08:28:33 GMT 57.318607 -5.743546 40,000 151 461 0
2018-07-12 08:28:30 GMT 57.324783 -5.749626 40,000 151 461 0
2018-07-12 08:28:27 GMT 57.329548 -5.754444 40,000 151 461 0
2018-07-12 08:28:23 GMT 57.337368 -5.762241 40,000 151 461 0
2018-07-12 08:28:20 GMT 57.343746 -5.768620 40,000 151 461 0
2018-07-12 08:28:17 GMT 57.350281 -5.775118 40,000 151 461 0
2018-07-12 08:28:13 GMT 57.357010 -5.781898 40,000 151 460 0
2018-07-12 08:28:10 GMT 57.362823 -5.787735 40,000 151 460 0
2018-07-12 08:28:07 GMT 57.368557 -5.793427 40,000 151 460 0
2018-07-12 08:28:03 GMT 57.375641 -5.800610 40,000 151 460 0
2018-07-12 08:28:00 GMT 57.381126 -5.806097 40,000 151 460 0
2018-07-12 08:27:56 GMT 57.387829 -5.812831 40,000 151 460 0
2018-07-12 08:27:52 GMT 57.396023 -5.821071 40,000 151 460 0
2018-07-12 08:27:47 GMT 57.405533 -5.830650 40,000 151 460 0
2018-07-12 08:27:43 GMT 57.414272 -5.839411 39,975 151 460 0
2018-07-12 08:27:39 GMT 57.419769 -5.844898 40,000 151 460 0
2018-07-12 08:27:36 GMT 57.426773 -5.851936 40,000 151 460 0
2018-07-12 08:27:31 GMT 57.434151 -5.859345 39,975 151 460 0
2018-07-12 08:27:27 GMT 57.442295 -5.867585 40,000 151 459 0
2018-07-12 08:27:24 GMT 57.447372 -5.872622 39,975 151 460 0
2018-07-12 08:27:21 GMT 57.454239 -5.879574 40,000 151 460 0
2018-07-12 08:27:18 GMT 57.459473 -5.884862 40,000 151 459 0
2018-07-12 08:27:15 GMT 57.464905 -5.890303 40,000 151 459 0
2018-07-12 08:27:12 GMT 57.471066 -5.896557 40,000 151 459 0
2018-07-12 08:27:09 GMT 57.475342 -5.900860 40,000 151 459 0
2018-07-12 08:27:05 GMT 57.483448 -5.909050 40,000 151 460 0
2018-07-12 08:27:02 GMT 57.489220 -5.914897 40,000 151 460 0
2018-07-12 08:26:58 GMT 57.498367 -5.924120 40,000 151 459 0
2018-07-12 08:26:54 GMT 57.503326 -5.929073 40,000 151 459 0
2018-07-12 08:26:51 GMT 57.510315 -5.936136 40,000 151 459 0
2018-07-12 08:26:45 GMT 57.521072 -5.947037 40,000 151 459 0
2018-07-12 08:26:42 GMT 57.527756 -5.953817 40,000 151 459 0
2018-07-12 08:26:39 GMT 57.532047 -5.958134 40,000 151 459 0
2018-07-12 08:26:34 GMT 57.541313 -5.967614 40,000 151 459 0
2018-07-12 08:26:31 GMT 57.547829 -5.974259 40,000 151 460 0
2018-07-12 08:26:28 GMT 57.553482 -5.979910 40,000 151 460 0
2018-07-12 08:26:24 GMT 57.560440 -5.987034 40,000 151 459 0
2018-07-12 08:26:21 GMT 57.566071 -5.992785 40,000 151 460 0
2018-07-12 08:26:18 GMT 57.569778 -5.996475 39,975 151 460 0
2018-07-12 08:26:14 GMT 57.579113 -6.005978 40,000 151 460 0
2018-07-12 08:26:11 GMT 57.585022 -6.012011 40,000 151 460 0
2018-07-12 08:26:04 GMT 57.597336 -6.024542 40,000 151 460 0
2018-07-12 08:26:01 GMT 57.603928 -6.031237 40,000 151 464 0
2018-07-12 08:25:55 GMT 57.615189 -6.042738 40,000 151 461 0
2018-07-12 08:25:52 GMT 57.618988 -6.046600 40,000 151 461 0
2018-07-12 08:25:49 GMT 57.626595 -6.054264 40,000 151 461 0
2018-07-12 08:25:46 GMT 57.630322 -6.058074 40,000 151 461 0
2018-07-12 08:25:42 GMT 57.638744 -6.066668 40,000 151 461 0
2018-07-12 08:25:38 GMT 57.645447 -6.073465 40,000 151 461 0
2018-07-12 08:25:35 GMT 57.650848 -6.078983 40,000 151 461 0
2018-07-12 08:25:32 GMT 57.656063 -6.084299 40,000 151 461 0
2018-07-12 08:25:29 GMT 57.661514 -6.089859 39,975 151 464 0
2018-07-12 08:25:26 GMT 57.668030 -6.096438 40,000 151 461 0
2018-07-12 08:25:22 GMT 57.675476 -6.104146 40,000 151 462 0
2018-07-12 08:25:19 GMT 57.680923 -6.109686 39,975 151 462 0
2018-07-12 08:25:12 GMT 57.694935 -6.123992 39,975 151 463 0
2018-07-12 08:25:09 GMT 57.699821 -6.128954 39,975 151 463 0
2018-07-12 08:25:02 GMT 57.713276 -6.142775 39,975 151 463 0
2018-07-12 08:24:59 GMT 57.719700 -6.149331 40,000 151 463 0
2018-07-12 08:24:53 GMT 57.731049 -6.161026 39,975 151 463 0
2018-07-12 08:24:50 GMT 57.735535 -6.165634 40,000 151 463 0
2018-07-12 08:24:47 GMT 57.740021 -6.170241 39,975 151 464 0
2018-07-12 08:24:41 GMT 57.752239 -6.182831 39,975 151 464 0
2018-07-12 08:24:38 GMT 57.758247 -6.188965 39,975 151 464 0
2018-07-12 08:24:30 GMT 57.772247 -6.203288 40,000 151 464 0
2018-07-12 08:24:27 GMT 57.778915 -6.210205 40,000 151 464 0
2018-07-12 08:24:19 GMT 57.792789 -6.224396 40,000 151 464 0
2018-07-12 08:24:15 GMT 57.799866 -6.231720 40,000 151 464 0
2018-07-12 08:24:10 GMT 57.812073 -6.244310 40,000 151 464 0
2018-07-12 08:24:07 GMT 57.816238 -6.248563 40,000 151 464 0
2018-07-12 08:24:01 GMT 57.827656 -6.260376 40,000 151 464 0
2018-07-12 08:23:58 GMT 57.832443 -6.265308 40,000 151 465 0
2018-07-12 08:23:49 GMT 57.850433 -6.283914 40,000 151 465 0
2018-07-12 08:23:46 GMT 57.854874 -6.288521 40,000 151 465 0
2018-07-12 08:23:40 GMT 57.865597 -6.299652 40,000 151 465 0
2018-07-12 08:23:37 GMT 57.871033 -6.305266 40,000 151 465 0
2018-07-12 08:23:33 GMT 57.880096 -6.314658 40,000 151 465 0
2018-07-12 08:23:30 GMT 57.884171 -6.318822 40,000 151 465 0
2018-07-12 08:23:27 GMT 57.891197 -6.326111 40,000 151 465 0
2018-07-12 08:23:20 GMT 57.904541 -6.339997 39,975 151 465 0
2018-07-12 08:23:17 GMT 57.910172 -6.345756 39,975 151 465 0
2018-07-12 08:23:09 GMT 57.924206 -6.360352 39,975 151 465 0
2018-07-12 08:23:06 GMT 57.929466 -6.365845 39,975 151 465 0
2018-07-12 08:22:58 GMT 57.945557 -6.382436 40,000 151 465 0
2018-07-12 08:22:55 GMT 57.949951 -6.387044 40,000 151 465 0
2018-07-12 08:22:46 GMT 57.967987 -6.405827 39,975 151 466 0
2018-07-12 08:22:42 GMT 57.976578 -6.414734 39,975 151 466 0
2018-07-12 08:22:38 GMT 57.982773 -6.421154 40,000 151 466 0
2018-07-12 08:22:35 GMT 57.988403 -6.427091 40,000 151 466 0
2018-07-12 08:22:29 GMT 58.000031 -6.439229 40,000 151 466 0
2018-07-12 08:22:25 GMT 58.007347 -6.446869 40,000 151 466 0
2018-07-12 08:22:17 GMT 58.022141 -6.462265 40,000 151 466 0
2018-07-12 08:22:14 GMT 58.027225 -6.467651 40,000 151 466 0
2018-07-12 08:22:07 GMT 58.040955 -6.481934 40,000 151 466 0
2018-07-12 08:22:04 GMT 58.046585 -6.487870 40,000 150 466 0
2018-07-12 08:21:57 GMT 58.063522 -6.505590 40,000 151 466 0
2018-07-12 08:21:53 GMT 58.066422 -6.508575 40,000 150 466 0
2018-07-12 08:21:47 GMT 58.078850 -6.521576 40,000 150 466 0
2018-07-12 08:21:43 GMT 58.085403 -6.528448 40,000 150 466 0
2018-07-12 08:21:38 GMT 58.096298 -6.539966 40,000 150 466 0
2018-07-12 08:21:33 GMT 58.104492 -6.548560 40,000 150 466 0
2018-07-12 08:21:27 GMT 58.117310 -6.562027 40,000 150 466 0
2018-07-12 08:21:23 GMT 58.123867 -6.569000 40,000 150 466 0
2018-07-12 08:21:16 GMT 58.136295 -6.582092 40,000 150 466 0
2018-07-12 08:21:12 GMT 58.143887 -6.590057 40,000 150 466 0
2018-07-12 08:21:06 GMT 58.155476 -6.602234 40,000 150 466 0
2018-07-12 08:21:02 GMT 58.163269 -6.610403 40,000 150 467 0
2018-07-12 08:20:54 GMT 58.177681 -6.625671 39,975 150 467 0
2018-07-12 08:20:51 GMT 58.183548 -6.631844 39,975 150 467 0
2018-07-12 08:20:45 GMT 58.195370 -6.644348 40,000 150 468 0
2018-07-12 08:20:41 GMT 58.202168 -6.651489 39,975 150 468 0
2018-07-12 08:20:31 GMT 58.222366 -6.672865 40,000 150 467 0
2018-07-12 08:20:20 GMT 58.241783 -6.693420 40,000 150 468 0
2018-07-12 08:20:10 GMT 58.261337 -6.714111 40,000 150 468 0
2018-07-12 08:20:01 GMT 58.277954 -6.731781 40,000 150 468 0
2018-07-12 08:19:58 GMT 58.283260 -6.737366 40,000 150 468 0
2018-07-12 08:19:55 GMT 58.289684 -6.744232 40,000 150 468 0
2018-07-12 08:19:51 GMT 58.297508 -6.752563 40,000 150 468 0
2018-07-12 08:19:41 GMT 58.316574 -6.772894 40,000 150 469 0
2018-07-12 08:19:36 GMT 58.325855 -6.782776 40,000 150 469 0
2018-07-12 08:19:31 GMT 58.336990 -6.794690 40,000 150 469 0
2018-07-12 08:19:22 GMT 58.351273 -6.809840 40,000 150 470 0
2018-07-12 08:19:18 GMT 58.358631 -6.817841 40,000 150 470 0
2018-07-12 08:19:10 GMT 58.375248 -6.835510 40,000 150 470 0
2018-07-12 08:19:06 GMT 58.381119 -6.841736 40,000 150 470 0
2018-07-12 08:19:00 GMT 58.395638 -6.857300 40,000 150 470 0
2018-07-12 08:18:54 GMT 58.405289 -6.867607 39,975 150 470 0
2018-07-12 08:18:48 GMT 58.416229 -6.879391 40,000 150 470 0
2018-07-12 08:18:38 GMT 58.434769 -6.899237 39,975 150 470 0
2018-07-12 08:18:27 GMT 58.456532 -6.922577 40,000 150 469 0
2018-07-12 08:18:16 GMT 58.476826 -6.944458 40,000 150 469 0
2018-07-12 08:17:47 GMT 58.531525 -7.003418 40,000 150 469 0
2018-07-12 08:17:25 GMT 58.572956 -7.048279 40,000 150 469 0
2018-07-12 08:17:22 GMT 58.578415 -7.054109 40,000 150 469 0
2018-07-12 08:17:13 GMT 58.594837 -7.071899 40,000 150 468 0
2018-07-12 08:16:51 GMT 58.636967 -7.117767 40,000 150 469 0
2018-07-12 08:16:42 GMT 58.656845 -7.139374 39,975 150 470 0
2018-07-12 08:16:37 GMT 58.663639 -7.146790 40,000 150 470 0
2018-07-12 08:16:08 GMT 58.717503 -7.205566 40,000 150 470 0
2018-07-12 08:16:01 GMT 58.730164 -7.219435 40,000 150 470 0
2018-07-12 08:15:20 GMT 58.807346 -7.304169 40,000 150 472 0
2018-07-12 08:15:13 GMT 58.820568 -7.318726 39,975 150 472 0
2018-07-12 08:11:44 GMT 59.216583 -7.760559 40,000 149 473 0
2018-07-12 08:10:39 GMT 59.339630 -7.900452 40,000 149 474 0
2018-07-12 08:05:47 GMT 59.892246 -8.543101 40,000 149 478 0
2018-07-12 08:05:43 GMT 59.899044 -8.551152 40,000 149 478 0
2018-07-12 08:05:34 GMT 59.918407 -8.574166 39,975 149 479 0
2018-07-12 08:05:10 GMT 59.961456 -8.625404 39,975 149 479 0
2018-07-12 08:05:03 GMT 59.977020 -8.643967 40,000 149 479 0
2018-07-12 08:04:50 GMT 59.998711 -8.669880 40,000 149 479 0
2018-07-12 08:04:41 GMT 60.016727 -8.691363 40,000 149 480 0
2018-07-12 08:04:29 GMT 60.039444 -8.718534 40,000 149 480 0
2018-07-12 08:04:19 GMT 60.057861 -8.740666 40,000 149 480 0
2018-07-12 08:04:10 GMT 60.075897 -8.762283 40,000 148 480 0
2018-07-12 08:04:00 GMT 60.095627 -8.786032 40,000 148 480 0
2018-07-12 08:03:50 GMT 60.114487 -8.808779 40,000 148 480 0
2018-07-12 08:03:13 GMT 60.183975 -8.892675 40,000 148 480 0
2018-07-12 08:02:59 GMT 60.210384 -8.924626 40,000 148 480 0
2018-07-12 08:02:56 GMT 60.215645 -8.931002 40,000 148 481 0
2018-07-12 08:02:46 GMT 60.235291 -8.954899 40,000 148 481 0
2018-07-12 08:02:36 GMT 60.254242 -8.978008 40,000 148 481 0
2018-07-12 08:01:04 GMT 60.427185 -9.190063 40,000 148 477 0
2018-07-12 08:00:57 GMT 60.440964 -9.207301 40,000 148 477 0
2018-07-12 08:00:46 GMT 60.461720 -9.233322 40,000 147 476 0
2018-07-12 08:00:36 GMT 60.479004 -9.255318 40,000 147 476 0
2018-07-12 08:00:26 GMT 60.498734 -9.280511 40,000 147 476 0
2018-07-12 08:00:12 GMT 60.524643 -9.313849 40,000 147 476 0
2018-07-12 08:00:05 GMT 60.535446 -9.327677 40,000 148 476 0
2018-07-12 07:59:53 GMT 60.559200 -9.357409 40,000 150 476 -64
2018-07-12 07:59:46 GMT 60.575542 -9.376537 40,000 151 476 0
2018-07-12 07:59:34 GMT 60.596115 -9.400079 40,000 148 476 0
We lost coverage of the aircraft here for a total of 5 minutes
2018-07-12 07:54:11 GMT 61.127975 -10.348307 39,975 127 478 0
2018-07-12 07:52:42 GMT 61.246490 -10.675474 40,000 126 477 64
We lost coverage of the aircraft here for a total of 34 minutes
2018-07-12 07:18:29 GMT 63.753662 -18.989319 39,975 119 497 0
2018-07-12 07:18:22 GMT 63.761295 -19.019972 40,000 119 497 0
2018-07-12 07:18:11 GMT 63.773941 -19.070787 39,975 119 497 0
2018-07-12 07:18:01 GMT 63.785271 -19.116322 40,000 119 496 0
2018-07-12 07:17:51 GMT 63.796490 -19.161585 40,000 119 497 0
2018-07-12 07:17:40 GMT 63.808411 -19.209806 40,000 119 496 0
2018-07-12 07:17:30 GMT 63.819351 -19.254173 40,000 119 496 0
2018-07-12 07:17:20 GMT 63.830933 -19.301289 39,975 119 497 0
2018-07-12 07:17:10 GMT 63.842205 -19.347034 40,000 118 497 0
2018-07-12 07:16:59 GMT 63.853748 -19.394495 40,000 118 497 0
2018-07-12 07:16:49 GMT 63.865482 -19.442505 40,000 118 497 0
2018-07-12 07:16:38 GMT 63.876938 -19.489429 40,000 118 497 64
2018-07-12 07:16:28 GMT 63.888290 -19.536219 40,000 118 497 64
2018-07-12 07:16:18 GMT 63.899605 -19.583019 39,975 118 498 0
2018-07-12 07:16:08 GMT 63.910950 -19.630033 39,975 118 498 0
2018-07-12 07:15:56 GMT 63.923763 -19.683544 40,000 118 498 0
2018-07-12 07:15:47 GMT 63.933773 -19.725513 40,000 118 498 0
2018-07-12 07:15:36 GMT 63.945511 -19.774757 40,000 118 497 0
2018-07-12 07:15:26 GMT 63.956257 -19.820326 39,975 118 497 0
2018-07-12 07:15:15 GMT 63.967991 -19.869762 39,975 118 498 0
2018-07-12 07:15:04 GMT 63.980091 -19.920300 39,975 118 498 0
2018-07-12 07:14:55 GMT 63.990417 -19.962475 40,000 119 497 0
2018-07-12 07:14:44 GMT 64.002960 -20.012442 40,000 119 497 0
2018-07-12 07:14:33 GMT 64.015427 -20.062134 40,000 119 497 0
2018-07-12 07:14:23 GMT 64.026672 -20.106989 40,000 119 497 0
2018-07-12 07:14:13 GMT 64.037865 -20.151781 40,000 119 498 0
2018-07-12 07:14:03 GMT 64.049057 -20.196884 40,000 119 498 0
2018-07-12 07:13:57 GMT 64.056107 -20.225092 40,000 119 498 0
2018-07-12 07:13:53 GMT 64.060768 -20.243849 40,000 119 498 64
2018-07-12 07:13:43 GMT 64.072266 -20.290319 39,975 119 498 -64
2018-07-12 07:13:36 GMT 64.080223 -20.322399 40,000 119 498 0
2018-07-12 07:13:32 GMT 64.084740 -20.340637 39,975 119 498 0
2018-07-12 07:13:27 GMT 64.089981 -20.361998 39,975 119 498 64
2018-07-12 07:13:21 GMT 64.096573 -20.388512 40,000 119 498 64
2018-07-12 07:13:11 GMT 64.108521 -20.437000 40,000 119 498 0
2018-07-12 07:13:01 GMT 64.119324 -20.480946 40,000 119 497 0
2018-07-12 07:12:51 GMT 64.131226 -20.529539 40,000 119 497 0
2018-07-12 07:12:46 GMT 64.136353 -20.550455 40,000 119 497 0
2018-07-12 07:12:41 GMT 64.142509 -20.575525 40,000 119 497 0
2018-07-12 07:12:35 GMT 64.148842 -20.601343 40,000 119 496 0
2018-07-12 07:12:28 GMT 64.156540 -20.632957 39,975 119 496 0
2018-07-12 07:12:25 GMT 64.159973 -20.647156 39,975 119 496 0
2018-07-12 07:12:19 GMT 64.166908 -20.675610 39,975 119 496 0
2018-07-12 07:12:15 GMT 64.171562 -20.694616 39,975 119 496 0
2018-07-12 07:12:08 GMT 64.178787 -20.724440 39,975 119 496 0
2018-07-12 07:12:04 GMT 64.183044 -20.741871 40,000 119 496 0
2018-07-12 07:11:58 GMT 64.189957 -20.770287 40,000 119 496 0
2018-07-12 07:11:54 GMT 64.194397 -20.788563 40,000 119 496 0
2018-07-12 07:11:47 GMT 64.202286 -20.821289 40,000 119 496 0
2018-07-12 07:11:44 GMT 64.205521 -20.834515 40,000 119 496 0
2018-07-12 07:11:37 GMT 64.213303 -20.866629 40,000 119 496 0
2018-07-12 07:11:34 GMT 64.216644 -20.880466 40,000 118 496 0
2018-07-12 07:11:27 GMT 64.224442 -20.912914 40,000 118 496 0
2018-07-12 07:11:24 GMT 64.227753 -20.926758 40,000 118 496 0
2018-07-12 07:11:17 GMT 64.235947 -20.960815 40,000 118 497 0
2018-07-12 07:11:13 GMT 64.240265 -20.978815 40,000 118 497 0
2018-07-12 07:11:07 GMT 64.247025 -21.006958 39,975 118 498 0
2018-07-12 07:11:04 GMT 64.250328 -21.020802 39,975 118 498 0
2018-07-12 07:10:53 GMT 64.261963 -21.069242 40,000 118 497 0
2018-07-12 07:10:44 GMT 64.271667 -21.109900 40,000 118 497 0
2018-07-12 07:10:41 GMT 64.275192 -21.124622 40,000 118 497 0
2018-07-12 07:10:34 GMT 64.282883 -21.157030 40,000 118 497 0
2018-07-12 07:10:31 GMT 64.286407 -21.171864 40,000 118 497 0
2018-07-12 07:10:24 GMT 64.294037 -21.203842 40,000 118 497 0
2018-07-12 07:10:13 GMT 64.306282 -21.255569 39,975 118 498 0
2018-07-12 07:10:03 GMT 64.316528 -21.298645 39,975 118 497 0
2018-07-12 07:09:53 GMT 64.328339 -21.348743 39,975 118 497 0
2018-07-12 07:09:46 GMT 64.338226 -21.390600 40,000 118 497 0
2018-07-12 07:09:39 GMT 64.343719 -21.414001 40,000 118 497 0
2018-07-12 07:09:31 GMT 64.352600 -21.451721 40,000 118 497 0
2018-07-12 07:09:22 GMT 64.362381 -21.493378 40,000 118 497 0
2018-07-12 07:09:15 GMT 64.370773 -21.529028 40,000 118 497 0
2018-07-12 07:09:11 GMT 64.373970 -21.542816 40,000 118 497 0
2018-07-12 07:09:04 GMT 64.382538 -21.579456 40,000 118 497 0
2018-07-12 07:08:59 GMT 64.386658 -21.597143 40,000 118 497 0
2018-07-12 07:08:53 GMT 64.394173 -21.629448 39,975 118 497 0
2018-07-12 07:08:50 GMT 64.396317 -21.638603 40,000 118 497 0
2018-07-12 07:08:44 GMT 64.406433 -21.681957 40,000 118 497 0
2018-07-12 07:08:39 GMT 64.408699 -21.691933 40,000 118 497 0
2018-07-12 07:08:30 GMT 64.418289 -21.733017 39,975 118 498 0
2018-07-12 07:08:20 GMT 64.429321 -21.780624 39,975 118 497 0
2018-07-12 07:08:13 GMT 64.438866 -21.821709 40,000 118 498 0
2018-07-12 07:08:09 GMT 64.440773 -21.830177 40,000 118 498 0
2018-07-12 07:07:59 GMT 64.451935 -21.878393 40,000 118 498 0
2018-07-12 07:07:49 GMT 64.463196 -21.927393 40,000 118 498 0
2018-07-12 07:07:39 GMT 64.473640 -21.973000 40,000 117 499 0
2018-07-12 07:07:31 GMT 64.483086 -22.014198 39,975 117 500 0
2018-07-12 07:07:28 GMT 64.485168 -22.023193 40,000 117 500 0
2018-07-12 07:07:17 GMT 64.496796 -22.074280 40,000 117 500 0
2018-07-12 07:07:07 GMT 64.508179 -22.124062 39,975 117 501 0
2018-07-12 07:06:56 GMT 64.519958 -22.175903 40,000 117 501 0
2018-07-12 07:06:47 GMT 64.529984 -22.219957 40,000 117 500 0
2018-07-12 07:06:37 GMT 64.540398 -22.265968 40,000 117 500 0
2018-07-12 07:06:28 GMT 64.550766 -22.312023 39,975 117 500 0
2018-07-12 07:06:18 GMT 64.561478 -22.359486 40,000 117 500 0
2018-07-12 07:05:58 GMT 64.582527 -22.453079 39,975 117 500 0
2018-07-12 07:05:55 GMT 64.584778 -22.463085 39,975 117 500 0
2018-07-12 07:05:44 GMT 64.597511 -22.519798 39,975 117 500 0
2018-07-12 07:05:35 GMT 64.606827 -22.561569 40,000 117 500 0
2018-07-12 07:05:25 GMT 64.617599 -22.609863 40,000 117 500 0
2018-07-12 07:05:14 GMT 64.628860 -22.660400 40,000 117 500 -64
2018-07-12 07:05:03 GMT 64.640030 -22.710829 40,000 117 500 0
2018-07-12 07:04:52 GMT 64.651703 -22.763453 40,000 117 500 0
2018-07-12 07:04:44 GMT 64.660950 -22.805309 40,000 117 500 0
2018-07-12 07:04:33 GMT 64.672348 -22.857166 40,000 117 500 0
2018-07-12 07:04:23 GMT 64.682877 -22.904957 40,000 117 500 0
2018-07-12 07:04:12 GMT 64.694481 -22.957993 40,000 117 500 0
2018-07-12 07:04:02 GMT 64.705002 -23.006058 40,000 117 500 0
2018-07-12 07:03:51 GMT 64.716133 -23.057098 40,000 116 500 0
2018-07-12 07:01:00 GMT 64.892471 -23.881531 39,975 116 499 0
2018-07-12 07:00:56 GMT 64.896706 -23.901558 39,975 116 498 0
2018-07-12 07:00:46 GMT 64.907364 -23.952599 40,000 116 499 0
2018-07-12 07:00:35 GMT 64.918587 -24.006386 40,000 116 497 0
2018-07-12 07:00:23 GMT 64.930458 -24.063492 40,000 116 497 0
2018-07-12 07:00:15 GMT 64.938858 -24.103893 40,000 116 497 0
2018-07-12 07:00:05 GMT 64.948982 -24.152756 40,000 115 497 0
2018-07-12 06:59:54 GMT 64.959732 -24.204639 40,000 115 498 0
2018-07-12 06:59:43 GMT 64.970909 -24.258957 40,000 115 498 0
2018-07-12 06:59:33 GMT 64.980125 -24.303703 40,000 115 497 0
2018-07-12 06:59:23 GMT 64.991158 -24.357491 40,000 115 498 0
2018-07-12 06:59:12 GMT 65.001205 -24.406567 40,000 115 498 0
2018-07-12 06:59:01 GMT 65.012665 -24.462891 40,000 115 499 0
2018-07-12 06:58:52 GMT 65.020905 -24.503403 40,000 115 498 0
2018-07-12 06:58:42 GMT 65.031616 -24.555931 39,975 115 498 0
2018-07-12 06:58:31 GMT 65.042313 -24.608385 39,975 115 498 0
2018-07-12 06:58:21 GMT 65.052147 -24.656982 39,975 115 498 0
2018-07-12 06:58:11 GMT 65.062103 -24.706535 39,975 115 497 0
2018-07-12 06:58:00 GMT 65.073120 -24.761206 39,975 115 497 0
2018-07-12 06:57:50 GMT 65.082680 -24.808731 40,000 115 497 0
2018-07-12 06:57:40 GMT 65.092926 -24.859886 40,000 115 496 0
2018-07-12 06:57:30 GMT 65.103210 -24.911385 40,000 115 496 0
2018-07-12 06:57:19 GMT 65.113266 -24.961967 40,000 115 497 0
2018-07-12 06:57:09 GMT 65.123520 -25.013453 40,000 115 497 0
2018-07-12 06:56:59 GMT 65.133659 -25.064507 40,000 115 497 0
2018-07-12 06:56:47 GMT 65.144257 -25.118042 39,975 115 498 0
2018-07-12 06:56:38 GMT 65.153442 -25.164871 40,000 115 498 0
2018-07-12 06:56:27 GMT 65.164803 -25.222549 40,000 115 498 0
2018-07-12 06:56:18 GMT 65.173088 -25.264778 40,000 114 499 0
2018-07-12 06:52:46 GMT 65.375633 -26.323959 40,000 113 499 0
2018-07-12 06:52:38 GMT 65.383133 -26.364323 40,000 113 499 0
2018-07-12 06:52:24 GMT 65.396301 -26.435165 40,000 113 499 0
2018-07-12 06:52:20 GMT 65.399239 -26.451138 40,000 113 499 0
2018-07-12 06:51:21 GMT 65.454170 -26.750036 40,000 113 499 0
2018-07-12 06:51:18 GMT 65.456818 -26.764755 40,000 113 498 0
2018-07-12 06:51:08 GMT 65.466843 -26.819572 40,000 113 499 0
2018-07-12 06:50:57 GMT 65.476913 -26.875191 40,000 113 499 0
2018-07-12 06:50:47 GMT 65.485748 -26.923943 40,000 113 499 0
2018-07-12 06:50:37 GMT 65.494537 -26.972694 40,000 113 500 0
2018-07-12 06:50:25 GMT 65.505569 -27.033920 40,000 113 500 0
2018-07-12 06:50:17 GMT 65.513580 -27.078667 40,000 113 500 0
We lost coverage of the aircraft here for a total of 292 minutes
2018-07-12 01:58:07 GMT 54.716721 -110.875961 36,975 34 483 0
2018-07-12 01:58:00 GMT 54.702370 -110.893333 37,000 34 483 0
2018-07-12 01:57:50 GMT 54.685799 -110.913307 37,000 34 483 0
2018-07-12 01:55:13 GMT 54.396194 -111.259918 37,000 34 482 0
2018-07-12 01:54:03 GMT 54.270309 -111.408745 36,975 34 481 0
2018-07-12 01:53:55 GMT 54.255840 -111.425766 37,000 34 481 0
2018-07-12 01:53:44 GMT 54.236252 -111.448685 37,000 34 480 0
2018-07-12 01:53:30 GMT 54.208359 -111.481506 37,000 34 479 0
2018-07-12 01:53:24 GMT 54.198990 -111.492477 37,000 34 480 0
2018-07-12 01:53:15 GMT 54.181091 -111.513428 37,000 34 479 0
2018-07-12 01:53:03 GMT 54.161247 -111.536514 37,000 34 479 0
2018-07-12 01:52:54 GMT 54.142822 -111.558083 37,000 34 480 0
2018-07-12 01:52:43 GMT 54.124004 -111.580139 37,000 34 480 0
2018-07-12 01:52:32 GMT 54.103893 -111.603561 37,000 34 481 0
2018-07-12 01:52:20 GMT 54.083588 -111.627296 36,975 34 481 64
2018-07-12 01:52:11 GMT 54.065598 -111.648170 36,975 34 481 0
2018-07-12 01:52:00 GMT 54.046310 -111.670616 37,000 34 475 0
2018-07-12 01:51:50 GMT 54.027737 -111.692261 36,975 34 479 0
2018-07-12 01:51:40 GMT 54.007141 -111.716125 36,975 34 478 0
2018-07-12 01:51:29 GMT 53.988876 -111.737312 37,000 34 477 0
2018-07-12 01:51:18 GMT 53.969284 -111.759911 37,000 34 476 0
2018-07-12 01:51:07 GMT 53.949600 -111.782593 37,000 34 475 0
2018-07-12 01:51:02 GMT 53.938477 -111.795616 37,000 34 475 0
2018-07-12 01:50:56 GMT 53.930008 -111.805275 37,000 34 475 0
2018-07-12 01:50:47 GMT 53.910873 -111.827324 37,000 34 476 0
2018-07-12 01:50:36 GMT 53.892406 -111.848572 36,975 34 476 0
2018-07-12 01:50:25 GMT 53.874115 -111.869461 36,975 34 475 64
2018-07-12 01:50:22 GMT 53.867455 -111.877251 36,975 34 475 64
2018-07-12 01:50:13 GMT 53.851860 -111.895187 36,975 34 473 128
2018-07-12 01:50:03 GMT 53.834290 -111.915367 36,900 34 472 704
2018-07-12 01:49:53 GMT 53.815689 -111.936707 36,775 34 472 896
2018-07-12 01:49:44 GMT 53.797676 -111.957390 36,625 34 473 960
2018-07-12 01:49:33 GMT 53.778122 -111.979767 36,425 34 474 960
2018-07-12 01:49:23 GMT 53.758804 -112.001816 36,275 34 475 896
2018-07-12 01:49:11 GMT 53.739998 -112.023308 36,125 34 475 896
2018-07-12 01:49:02 GMT 53.720856 -112.045090 35,975 34 475 768
2018-07-12 01:48:50 GMT 53.700985 -112.067734 35,800 34 476 896
2018-07-12 01:48:40 GMT 53.682037 -112.089302 35,650 34 476 896
2018-07-12 01:48:29 GMT 53.661530 -112.112656 35,475 34 476 896
2018-07-12 01:48:19 GMT 53.643631 -112.132896 35,325 33 477 1024
2018-07-12 01:48:08 GMT 53.624954 -112.154091 35,150 33 477 896
2018-07-12 01:47:57 GMT 53.605225 -112.176453 35,000 33 477 768
2018-07-12 01:47:47 GMT 53.585541 -112.198738 34,875 33 477 704
2018-07-12 01:47:37 GMT 53.566311 -112.220497 34,750 33 476 576
2018-07-12 01:47:29 GMT 53.553040 -112.235466 34,675 33 475 576
2018-07-12 01:47:26 GMT 53.547409 -112.241821 34,650 33 475 576
2018-07-12 01:47:19 GMT 53.534283 -112.256683 34,575 33 474 576
2018-07-12 01:47:15 GMT 53.527763 -112.264038 34,525 33 473 576
2018-07-12 01:47:07 GMT 53.513195 -112.280434 34,450 33 472 512
2018-07-12 01:47:04 GMT 53.508270 -112.285927 34,425 33 472 448
2018-07-12 01:46:54 GMT 53.489685 -112.306931 34,350 33 471 384
2018-07-12 01:46:47 GMT 53.477646 -112.320450 34,300 33 469 192
2018-07-12 01:46:44 GMT 53.469898 -112.329147 34,300 33 468 128
2018-07-12 01:46:36 GMT 53.457550 -112.342972 34,275 33 465 64
2018-07-12 01:46:33 GMT 53.451233 -112.350067 34,275 33 464 192
2018-07-12 01:46:26 GMT 53.437866 -112.365028 34,225 33 464 512
2018-07-12 01:46:22 GMT 53.432053 -112.371559 34,200 33 463 640
2018-07-12 01:46:16 GMT 53.421345 -112.383514 34,125 33 462 768
2018-07-12 01:46:12 GMT 53.413422 -112.392410 34,050 33 462 832
2018-07-12 01:46:05 GMT 53.401703 -112.405518 33,975 33 462 896
2018-07-12 01:46:01 GMT 53.394608 -112.413445 33,900 33 462 896
2018-07-12 01:45:55 GMT 53.384895 -112.424385 33,825 33 462 832
2018-07-12 01:45:51 GMT 53.375633 -112.434731 33,750 33 462 832
2018-07-12 01:45:45 GMT 53.366226 -112.445145 33,675 33 462 832
2018-07-12 01:45:39 GMT 53.356979 -112.455429 33,600 33 462 768
2018-07-12 01:45:35 GMT 53.347561 -112.465988 33,525 33 462 768
2018-07-12 01:45:28 GMT 53.336903 -112.477867 33,450 33 461 768
2018-07-12 01:45:24 GMT 53.329174 -112.486511 33,400 33 461 832
2018-07-12 01:45:19 GMT 53.318985 -112.497803 33,300 33 461 832
2018-07-12 01:45:13 GMT 53.310368 -112.507431 33,250 33 461 832
2018-07-12 01:45:07 GMT 53.300449 -112.518501 33,150 33 461 768
2018-07-12 01:45:03 GMT 53.291885 -112.527954 33,100 33 461 768
2018-07-12 01:44:58 GMT 53.282017 -112.538940 33,025 33 460 768
2018-07-12 01:44:52 GMT 53.273254 -112.548653 32,975 33 461 704
2018-07-12 01:44:46 GMT 53.262634 -112.560501 32,900 33 460 768
2018-07-12 01:44:42 GMT 53.254738 -112.569229 32,825 33 460 768
2018-07-12 01:44:37 GMT 53.243958 -112.581223 32,750 33 460 768
2018-07-12 01:44:31 GMT 53.235973 -112.590073 32,700 33 460 768
2018-07-12 01:44:25 GMT 53.225601 -112.601624 32,600 33 460 768
2018-07-12 01:44:22 GMT 53.218239 -112.609703 32,550 33 460 832
2018-07-12 01:44:16 GMT 53.207253 -112.621819 32,475 33 460 896
2018-07-12 01:44:11 GMT 53.200012 -112.629799 32,400 33 460 960
2018-07-12 01:44:05 GMT 53.188866 -112.642174 32,300 33 460 960
2018-07-12 01:44:00 GMT 53.180923 -112.650902 32,225 33 460 896
2018-07-12 01:43:54 GMT 53.169617 -112.663460 32,125 33 460 960
2018-07-12 01:43:49 GMT 53.161213 -112.672714 32,050 33 461 960
2018-07-12 01:43:44 GMT 53.150391 -112.684647 31,950 33 461 896
2018-07-12 01:43:39 GMT 53.143295 -112.692497 31,875 33 461 960
2018-07-12 01:43:33 GMT 53.132263 -112.704659 31,800 33 461 896
2018-07-12 01:43:29 GMT 53.124996 -112.712700 31,725 33 461 768
2018-07-12 01:43:23 GMT 53.114010 -112.724731 31,650 33 461 768
2018-07-12 01:43:19 GMT 53.108002 -112.731361 31,600 33 461 704
2018-07-12 01:43:12 GMT 53.094910 -112.745819 31,525 33 461 704
2018-07-12 01:43:02 GMT 53.076141 -112.766418 31,375 33 461 704
2018-07-12 01:42:50 GMT 53.056961 -112.787399 31,225 33 461 896
2018-07-12 01:42:41 GMT 53.038967 -112.807144 31,075 33 462 896
2018-07-12 01:42:29 GMT 53.018921 -112.829132 30,925 33 462 832
2018-07-12 01:42:17 GMT 52.997177 -112.852859 30,750 33 462 768
2018-07-12 01:42:03 GMT 52.971325 -112.881149 30,550 33 462 768
2018-07-12 01:41:55 GMT 52.956894 -112.896881 30,425 33 462 832
2018-07-12 01:41:48 GMT 52.944977 -112.909866 30,325 33 463 1024
2018-07-12 01:41:43 GMT 52.937256 -112.918320 30,250 33 463 1152
2018-07-12 01:41:37 GMT 52.924713 -112.931976 30,125 33 464 1088
2018-07-12 01:41:33 GMT 52.918167 -112.939148 30,050 33 465 1088
2018-07-12 01:41:25 GMT 52.903564 -112.955017 29,900 33 467 1088
2018-07-12 01:41:22 GMT 52.898163 -112.960892 29,850 33 467 1024
2018-07-12 01:41:15 GMT 52.885483 -112.974770 29,750 33 467 1024
2018-07-12 01:41:12 GMT 52.881062 -112.979553 29,675 33 467 832
2018-07-12 01:41:02 GMT 52.863144 -112.998962 29,575 33 467 640
2018-07-12 01:40:54 GMT 52.847450 -113.015968 29,475 33 467 512
2018-07-12 01:40:44 GMT 52.830185 -113.034668 29,400 33 466 448
2018-07-12 01:40:39 GMT 52.821304 -113.044281 29,350 33 465 384
2018-07-12 01:40:33 GMT 52.810593 -113.055878 29,300 33 464 384
2018-07-12 01:40:25 GMT 52.795357 -113.072311 29,250 33 463 448
2018-07-12 01:40:22 GMT 52.790817 -113.077240 29,225 33 462 576
2018-07-12 01:40:15 GMT 52.776318 -113.092873 29,150 33 460 576
2018-07-12 01:40:12 GMT 52.773148 -113.096237 29,100 33 461 576
2018-07-12 01:40:09 GMT 52.768776 -113.100952 29,100 33 461 576
2018-07-12 01:40:05 GMT 52.762028 -113.108170 29,075 33 461 576
2018-07-12 01:40:02 GMT 52.754578 -113.116257 29,025 33 460 576
2018-07-12 01:39:54 GMT 52.739868 -113.132103 28,950 33 460 576
2018-07-12 01:39:49 GMT 52.733414 -113.139038 28,900 33 460 576
2018-07-12 01:39:44 GMT 52.722878 -113.150391 28,825 33 459 640
2018-07-12 01:39:41 GMT 52.716869 -113.156906 28,775 33 459 640
2018-07-12 01:39:37 GMT 52.709106 -113.165283 28,775 33 459 640
2018-07-12 01:39:34 GMT 52.703613 -113.171310 28,725 33 459 640
2018-07-12 01:39:29 GMT 52.697739 -113.177620 28,625 33 458 704
2018-07-12 01:39:26 GMT 52.691689 -113.184212 28,625 33 458 704
2018-07-12 01:39:23 GMT 52.685123 -113.191353 28,600 33 458 768
2018-07-12 01:39:20 GMT 52.679214 -113.197708 28,550 33 458 768
2018-07-12 01:39:09 GMT 52.660721 -113.217697 28,400 33 457 704
2018-07-12 01:38:58 GMT 52.642620 -113.237106 28,275 33 456 768
2018-07-12 01:38:47 GMT 52.623047 -113.258133 28,125 33 456 832
2018-07-12 01:38:37 GMT 52.604553 -113.277893 27,975 33 455 832
2018-07-12 01:38:27 GMT 52.585602 -113.298111 27,825 33 455 768
2018-07-12 01:38:16 GMT 52.567291 -113.317719 27,700 33 455 704
2018-07-12 01:38:05 GMT 52.548401 -113.338097 27,550 33 453 768
2018-07-12 01:37:58 GMT 52.534248 -113.353638 27,450 34 453 832
2018-07-12 01:37:54 GMT 52.529572 -113.358841 27,400 34 453 832
2018-07-12 01:37:47 GMT 52.516663 -113.373566 27,300 35 453 832
2018-07-12 01:37:44 GMT 52.511856 -113.379066 27,250 35 453 896
2018-07-12 01:37:34 GMT 52.493042 -113.399124 27,100 28 450 832
2018-07-12 01:37:26 GMT 52.479813 -113.410034 27,000 23 447 832
2018-07-12 01:37:23 GMT 52.473679 -113.414154 26,950 20 445 768
2018-07-12 01:37:12 GMT 52.452827 -113.424812 26,825 13 441 832
2018-07-12 01:37:05 GMT 52.438797 -113.430328 26,725 13 440 896
2018-07-12 01:37:02 GMT 52.431473 -113.433228 26,675 13 440 896
2018-07-12 01:36:54 GMT 52.418705 -113.438156 26,575 13 439 832
2018-07-12 01:36:51 GMT 52.411209 -113.441055 26,525 13 439 832
2018-07-12 01:36:43 GMT 52.389496 -113.449554 26,375 13 437 832
2018-07-12 01:36:34 GMT 52.377594 -113.454208 26,275 13 436 960
2018-07-12 01:36:23 GMT 52.355766 -113.462639 26,100 13 436 1024
2018-07-12 01:36:19 GMT 52.347897 -113.465698 26,025 13 435 1088
2018-07-12 01:36:11 GMT 52.331360 -113.472137 25,850 13 435 1216
2018-07-12 01:36:07 GMT 52.323395 -113.475189 25,825 13 435 1216
2018-07-12 01:36:02 GMT 52.316196 -113.478020 25,700 13 435 1216
2018-07-12 01:35:57 GMT 52.304420 -113.482567 25,575 13 435 1216
2018-07-12 01:35:49 GMT 52.289986 -113.488220 25,425 13 435 1152
2018-07-12 01:35:46 GMT 52.285080 -113.490143 25,375 13 435 1152
2018-07-12 01:35:42 GMT 52.275463 -113.493874 25,300 13 435 1152
2018-07-12 01:35:37 GMT 52.263931 -113.498306 25,175 13 435 1088
2018-07-12 01:35:32 GMT 52.254547 -113.501968 25,100 13 434 1088
2018-07-12 01:35:26 GMT 52.244041 -113.506035 25,000 13 434 1024
2018-07-12 01:35:19 GMT 52.231567 -113.510818 24,875 13 433 1024
2018-07-12 01:35:15 GMT 52.223511 -113.513962 24,825 13 433 768
2018-07-12 01:35:10 GMT 52.213779 -113.517723 24,750 13 432 896
2018-07-12 01:35:05 GMT 52.201771 -113.522354 24,675 13 431 896
2018-07-12 01:35:00 GMT 52.194462 -113.525185 24,600 13 430 1024
2018-07-12 01:34:57 GMT 52.187210 -113.527985 24,525 13 430 1024
2018-07-12 01:34:54 GMT 52.181614 -113.530128 24,475 13 430 1024
2018-07-12 01:34:50 GMT 52.174118 -113.533020 24,425 13 429 1024
2018-07-12 01:34:46 GMT 52.167114 -113.535690 24,350 13 428 960
2018-07-12 01:34:42 GMT 52.160248 -113.538361 24,300 13 428 1024
2018-07-12 01:34:36 GMT 52.146374 -113.543701 24,175 13 427 1152
2018-07-12 01:34:32 GMT 52.139374 -113.546371 24,100 13 426 1152
2018-07-12 01:34:28 GMT 52.132778 -113.548882 24,050 13 426 1216
2018-07-12 01:34:25 GMT 52.126171 -113.551468 23,975 13 426 1280
2018-07-12 01:34:21 GMT 52.118729 -113.554382 23,875 13 426 1344
2018-07-12 01:34:18 GMT 52.114792 -113.555908 23,825 13 426 1344
2018-07-12 01:34:15 GMT 52.105316 -113.559494 23,725 13 426 1344
2018-07-12 01:34:11 GMT 52.097866 -113.562378 23,650 13 426 1344
2018-07-12 01:34:08 GMT 52.094795 -113.563553 23,600 13 426 1344
2018-07-12 01:34:03 GMT 52.085587 -113.567123 23,500 13 426 1280
2018-07-12 01:34:00 GMT 52.077850 -113.570068 23,375 13 425 1344
2018-07-12 01:33:57 GMT 52.074497 -113.571404 23,375 13 425 1280
2018-07-12 01:33:53 GMT 52.064907 -113.575089 23,275 13 425 1280
2018-07-12 01:33:47 GMT 52.054432 -113.579094 23,150 13 424 1216
2018-07-12 01:33:42 GMT 52.044846 -113.582764 23,050 13 424 1152
2018-07-12 01:33:38 GMT 52.036057 -113.586121 22,975 13 423 1024
2018-07-12 01:33:35 GMT 52.031158 -113.588028 22,925 13 423 1024
2018-07-12 01:33:32 GMT 52.025433 -113.590233 22,875 13 422 1024
2018-07-12 01:33:27 GMT 52.014038 -113.594513 22,775 13 421 1088
2018-07-12 01:33:22 GMT 52.004715 -113.598160 22,700 13 420 1216
2018-07-12 01:33:16 GMT 51.994949 -113.601837 22,575 13 420 1344
2018-07-12 01:33:11 GMT 51.985165 -113.605614 22,475 13 420 1280
2018-07-12 01:33:05 GMT 51.975449 -113.609314 22,375 13 419 1216
2018-07-12 01:33:01 GMT 51.965149 -113.613205 22,250 13 418 1216
2018-07-12 01:32:55 GMT 51.955696 -113.616837 22,150 13 418 1152
2018-07-12 01:32:50 GMT 51.945545 -113.620682 22,050 13 415 1088
2018-07-12 01:32:44 GMT 51.933910 -113.625160 21,950 13 415 1088
2018-07-12 01:32:40 GMT 51.925964 -113.628159 21,875 13 414 1088
2018-07-12 01:32:34 GMT 51.914265 -113.632614 21,750 13 413 1344
2018-07-12 01:32:28 GMT 51.905464 -113.635986 21,625 13 412 1792
2018-07-12 01:32:23 GMT 51.895039 -113.639908 21,450 13 412 1920
2018-07-12 01:32:18 GMT 51.886475 -113.643188 21,325 13 413 1600
2018-07-12 01:32:13 GMT 51.876137 -113.647156 21,175 13 413 1408
2018-07-12 01:32:07 GMT 51.867107 -113.650589 21,075 13 414 896
2018-07-12 01:32:02 GMT 51.855980 -113.654861 21,000 13 414 256
2018-07-12 01:31:57 GMT 51.847088 -113.658218 20,975 13 414 -64
2018-07-12 01:31:50 GMT 51.834427 -113.663025 21,000 13 415 192
2018-07-12 01:31:47 GMT 51.827351 -113.665695 20,975 13 415 192
2018-07-12 01:31:40 GMT 51.814129 -113.670731 20,950 13 414 320
2018-07-12 01:31:36 GMT 51.806625 -113.673531 20,925 13 412 704
2018-07-12 01:31:32 GMT 51.801041 -113.675690 20,850 13 411 1280
2018-07-12 01:31:29 GMT 51.793716 -113.678429 20,825 13 411 1408
2018-07-12 01:31:24 GMT 51.787548 -113.680801 20,750 13 411 1536
2018-07-12 01:31:21 GMT 51.778473 -113.684158 20,625 13 410 1472
2018-07-12 01:31:18 GMT 51.773346 -113.686150 20,550 13 409 1408
2018-07-12 01:31:15 GMT 51.768173 -113.688080 20,475 13 409 1472
2018-07-12 01:31:09 GMT 51.759060 -113.691559 20,375 13 408 1472
2018-07-12 01:31:04 GMT 51.749142 -113.695297 20,250 13 408 1344
2018-07-12 01:31:00 GMT 51.740570 -113.698547 20,125 13 407 1408
2018-07-12 01:30:53 GMT 51.729034 -113.702927 20,000 13 405 1344
2018-07-12 01:30:49 GMT 51.717396 -113.707275 19,850 13 404 1344
2018-07-12 01:30:45 GMT 51.713299 -113.708801 19,800 13 404 1408
2018-07-12 01:30:37 GMT 51.699890 -113.713837 19,525 13 403 1664
2018-07-12 01:30:33 GMT 51.693329 -113.716354 19,525 13 403 1600
2018-07-12 01:30:25 GMT 51.676754 -113.722534 19,250 13 403 1792
2018-07-12 01:30:20 GMT 51.668060 -113.725792 19,125 13 402 1536
2018-07-12 01:30:12 GMT 51.653732 -113.731140 18,925 13 401 1408
2018-07-12 01:30:08 GMT 51.648651 -113.733070 18,850 13 400 1408
2018-07-12 01:29:59 GMT 51.629459 -113.740311 18,600 13 398 1472
2018-07-12 01:29:56 GMT 51.626526 -113.741379 18,575 13 398 1408
2018-07-12 01:29:48 GMT 51.610371 -113.747559 18,350 13 396 1472
2018-07-12 01:29:45 GMT 51.605804 -113.749252 18,300 13 395 1472
2018-07-12 01:29:39 GMT 51.595001 -113.753334 18,150 13 394 1472
2018-07-12 01:29:35 GMT 51.588444 -113.755875 18,050 13 393 1472
2018-07-12 01:29:27 GMT 51.574619 -113.761139 17,850 13 392 1664
2018-07-12 01:29:24 GMT 51.569504 -113.763054 17,775 13 391 1728
2018-07-12 01:29:17 GMT 51.557190 -113.767807 17,575 13 390 1664
2018-07-12 01:29:14 GMT 51.551250 -113.770142 17,500 13 390 1600
2018-07-12 01:29:07 GMT 51.539192 -113.774872 17,275 13 389 1600
2018-07-12 01:29:04 GMT 51.533112 -113.777237 17,225 14 388 1600
2018-07-12 01:28:57 GMT 51.520805 -113.782196 17,050 14 387 1600
2018-07-12 01:28:53 GMT 51.514618 -113.784660 16,925 14 386 1600
2018-07-12 01:28:47 GMT 51.503906 -113.788887 16,775 13 385 1728
2018-07-12 01:28:41 GMT 51.491913 -113.792900 16,575 10 384 1792
2018-07-12 01:28:35 GMT 51.484913 -113.794632 16,450 5 382 1792
2018-07-12 01:28:31 GMT 51.477036 -113.795715 16,325 2 382 1728
2018-07-12 01:28:25 GMT 51.464893 -113.796005 16,125 359 380 1728
2018-07-12 01:28:21 GMT 51.459412 -113.795792 16,025 359 379 1728
2018-07-12 01:28:14 GMT 51.446880 -113.795319 15,825 359 378 1920
2018-07-12 01:28:11 GMT 51.440083 -113.795090 15,700 359 378 2048
2018-07-12 01:28:03 GMT 51.428284 -113.794601 15,475 359 377 1856
2018-07-12 01:28:00 GMT 51.421185 -113.794250 15,350 359 377 1856
2018-07-12 01:27:54 GMT 51.410843 -113.793861 15,200 359 376 1664
2018-07-12 01:27:48 GMT 51.402702 -113.793564 15,050 359 375 1664
2018-07-12 01:27:42 GMT 51.391251 -113.793106 14,875 359 373 1664
2018-07-12 01:27:39 GMT 51.384407 -113.792801 14,750 359 372 1536
2018-07-12 01:27:32 GMT 51.373466 -113.792343 14,600 359 370 1472
2018-07-12 01:27:28 GMT 51.365135 -113.791962 14,475 359 369 1600
2018-07-12 01:27:22 GMT 51.352982 -113.791489 14,300 359 367 1792
2018-07-12 01:27:17 GMT 51.346512 -113.791199 14,175 359 366 1536
2018-07-12 01:27:11 GMT 51.336182 -113.790817 14,025 359 363 1472
2018-07-12 01:27:06 GMT 51.328686 -113.790512 13,925 359 362 1600
2018-07-12 01:27:00 GMT 51.317825 -113.790077 13,750 359 360 1856
2018-07-12 01:26:56 GMT 51.312435 -113.789825 13,600 359 358 1984
2018-07-12 01:26:52 GMT 51.306526 -113.789597 13,450 359 358 2112
2018-07-12 01:26:49 GMT 51.299637 -113.789291 13,400 359 358 2048
2018-07-12 01:26:45 GMT 51.293213 -113.789062 13,250 359 357 2176
2018-07-12 01:26:42 GMT 51.288929 -113.788910 12,700 359 357 2176
2018-07-12 01:26:38 GMT 51.283081 -113.788742 13,025 359 357 2304
2018-07-12 01:26:34 GMT 51.274429 -113.788368 12,850 359 357 2368
2018-07-12 01:26:31 GMT 51.271637 -113.788292 12,700 359 357 2496
2018-07-12 01:26:28 GMT 51.265839 -113.788071 12,625 359 357 2432
2018-07-12 01:26:25 GMT 51.260376 -113.787849 12,475 359 358 2496
2018-07-12 01:26:21 GMT 51.254574 -113.787613 12,350 359 358 2432
2018-07-12 01:26:17 GMT 51.247124 -113.787308 12,200 359 358 2368
2018-07-12 01:26:13 GMT 51.241352 -113.787079 12,025 359 358 2368
2018-07-12 01:26:10 GMT 51.237488 -113.786957 11,925 359 358 2560
2018-07-12 01:26:06 GMT 51.229614 -113.786659 11,725 359 359 2752
2018-07-12 01:26:02 GMT 51.223984 -113.786438 11,575 359 359 2560
2018-07-12 01:25:59 GMT 51.220001 -113.786293 11,400 359 359 1856
2018-07-12 01:25:56 GMT 51.211990 -113.785919 11,325 359 358 1600
2018-07-12 01:25:53 GMT 51.206856 -113.785706 11,250 359 356 1280
2018-07-12 01:25:48 GMT 51.201969 -113.785477 11,200 359 356 1280
2018-07-12 01:25:44 GMT 51.192471 -113.785095 11,075 359 352 960
2018-07-12 01:25:39 GMT 51.185909 -113.784790 11,025 359 349 896
2018-07-12 01:25:35 GMT 51.177795 -113.784363 10,925 359 345 896
2018-07-12 01:25:31 GMT 51.172546 -113.784103 10,875 359 343 960
2018-07-12 01:25:28 GMT 51.168449 -113.783951 10,850 359 339 960
2018-07-12 01:25:24 GMT 51.161236 -113.783569 10,775 358 336 832
2018-07-12 01:25:19 GMT 51.155457 -113.783249 10,725 358 328 768
2018-07-12 01:25:16 GMT 51.150238 -113.782951 10,675 358 331 768
2018-07-12 01:25:13 GMT 51.144791 -113.782578 10,625 358 326 768
2018-07-12 01:25:10 GMT 51.140213 -113.782356 10,575 358 324 768
2018-07-12 01:25:07 GMT 51.136238 -113.782120 10,550 358 321 832
2018-07-12 01:25:00 GMT 51.124649 -113.781395 10,425 358 313 832
2018-07-12 01:24:57 GMT 51.120174 -113.781128 10,400 358 310 704
2018-07-12 01:24:51 GMT 51.113113 -113.780724 10,325 358 305 704
2018-07-12 01:24:46 GMT 51.104782 -113.780205 10,250 359 299 1024
2018-07-12 01:24:41 GMT 51.097321 -113.779907 10,125 359 296 1856
2018-07-12 01:24:35 GMT 51.089546 -113.779602 9,950 0 294 2176
2018-07-12 01:24:30 GMT 51.082794 -113.779526 9,750 0 293 2560
2018-07-12 01:24:26 GMT 51.078697 -113.779526 9,625 0 293 2752
2018-07-12 01:24:22 GMT 51.072556 -113.779465 9,425 0 294 2688
2018-07-12 01:24:18 GMT 51.067806 -113.779526 9,275 0 295 2688
2018-07-12 01:24:15 GMT 51.063988 -113.779526 9,150 0 295 2560
2018-07-12 01:24:10 GMT 51.057468 -113.779831 8,975 19 295 1728
2018-07-12 01:24:07 GMT 51.051792 -113.781128 8,850 12 295 1856
2018-07-12 01:24:04 GMT 51.049183 -113.782196 8,775 16 295 1664
2018-07-12 01:24:00 GMT 51.042294 -113.786392 8,625 28 293 1728
2018-07-12 01:23:54 GMT 51.037216 -113.790817 8,350 45 287 1152
2018-07-12 01:23:51 GMT 51.032913 -113.795868 8,425 39 291 1408
2018-07-12 01:23:41 GMT 51.023300 -113.812126 8,175 63 275 576
2018-07-12 01:23:34 GMT 51.019016 -113.823853 8,150 67 272 576
2018-07-12 01:23:30 GMT 51.017120 -113.831421 8,100 73 267 1024
2018-07-12 01:23:26 GMT 51.015701 -113.839737 8,025 79 263 1536
2018-07-12 01:23:19 GMT 51.014271 -113.854599 7,800 83 259 1792
2018-07-12 01:23:12 GMT 51.013760 -113.862152 7,700 83 255 1664
2018-07-12 01:23:08 GMT 51.013046 -113.872101 7,475 83 253 1472
2018-07-12 01:23:03 GMT 51.012409 -113.882294 7,400 83 252 1536
2018-07-12 01:22:57 GMT 51.011803 -113.891373 7,275 84 248 1280
2018-07-12 01:22:52 GMT 51.011196 -113.900452 7,175 84 243 1152
2018-07-12 01:22:45 GMT 51.010529 -113.912483 7,050 85 235 1088
2018-07-12 01:22:42 GMT 51.010220 -113.919220 6,975 87 232 1216
2018-07-12 01:22:35 GMT 51.009987 -113.929291 6,850 89 225 896
2018-07-12 01:22:31 GMT 51.009987 -113.935547 6,825 93 221 384
2018-07-12 01:22:25 GMT 51.010826 -113.946609 6,725 105 213 768
2018-07-12 01:22:22 GMT 51.011398 -113.950050 6,725 105 213 768
2018-07-12 01:22:19 GMT 51.012268 -113.953835 6,700 114 208 576
2018-07-12 01:22:14 GMT 51.015621 -113.962402 6,650 130 201 384
2018-07-12 01:22:11 GMT 51.017109 -113.965073 6,625 137 198 384
2018-07-12 01:22:06 GMT 51.019855 -113.968811 6,600 147 196 320
2018-07-12 01:22:02 GMT 51.023254 -113.972015 6,575 156 192 448
2018-07-12 01:21:59 GMT 51.025955 -113.973801 6,550 162 190 640
2018-07-12 01:21:53 GMT 51.031860 -113.976105 6,425 170 185 1280
2018-07-12 01:21:50 GMT 51.033447 -113.976517 6,375 170 185 1472
2018-07-12 01:21:47 GMT 51.036758 -113.977364 6,300 170 185 1536
2018-07-12 01:21:42 GMT 51.041840 -113.978622 6,150 170 186 1472
2018-07-12 01:21:39 GMT 51.043533 -113.979073 6,100 170 186 1536
2018-07-12 01:21:35 GMT 51.046234 -113.979813 6,025 170 186 1472
2018-07-12 01:21:32 GMT 51.049118 -113.980553 5,950 171 186 1536
2018-07-12 01:21:29 GMT 51.051224 -113.981079 5,875 171 186 1536
2018-07-12 01:21:26 GMT 51.054489 -113.981857 5,775 171 186 1472
2018-07-12 01:21:19 GMT 51.060497 -113.983307 5,625 171 187 1472
2018-07-12 01:21:14 GMT 51.063492 -113.984047 5,525 171 186 1344
2018-07-12 01:21:11 GMT 51.067612 -113.985008 5,425 171 185 1216
2018-07-12 01:21:07 GMT 51.070312 -113.985603 5,375 171 184 1152
2018-07-12 01:21:04 GMT 51.072784 -113.986206 5,325 171 184 1152
2018-07-12 01:21:00 GMT 51.075996 -113.986969 5,250 171 182 1344
2018-07-12 01:20:56 GMT 51.079628 -113.987732 5,150 172 182 1536
2018-07-12 01:20:53 GMT 51.082214 -113.988350 5,075 172 182 1472
2018-07-12 01:20:47 GMT 51.087357 -113.989334 4,875 173 184 2304
2018-07-12 01:20:42 GMT 51.090637 -113.989983 4,725 174 186 2560
2018-07-12 01:20:36 GMT 51.096249 -113.990707 4,475 178 189 2496
2018-07-12 01:20:33 GMT 51.099274 -113.990860 4,325 181 190 2368
2018-07-12 01:20:24 GMT 51.105881 -113.990723 4,025 181 190 2432
2018-07-12 01:20:21 GMT 51.108772 -113.990707 3,900 181 191 2176
2018-07-12 01:20:16 GMT 51.113892 -113.990578 3,500 181 196 1600
2018-07-12 01:20:11 GMT 51.118767 -113.990395 0 180 199
2018-07-12 01:20:04 GMT 51.125378 -113.990326 0 180 199
2018-07-12 01:20:01 GMT 51.127483 -113.990311 0 180 199
2018-07-12 01:19:53 GMT 51.132408 -113.990295 0 180 160
2018-07-12 01:19:49 GMT 51.136482 -113.990311 0 180 135
2018-07-12 01:19:45 GMT 51.138054 -113.990288 0 180 130
2018-07-12 01:19:39 GMT 51.141975 -113.990288 0 180 94
2018-07-12 01:19:34 GMT 51.143757 -113.990288 0 180 78
2018-07-12 01:19:31 GMT 51.144779 -113.990295 0 180 65
2018-07-12 01:19:27 GMT 51.145592 -113.990280 0 180 57
2018-07-12 01:19:17 GMT 51.147408 -113.990273 0 177 22
2018-07-12 01:19:10 GMT 51.147961 -113.990295 0 177 11
2018-07-12 01:19:07 GMT 51.148144 -113.990318 0 165 8
2018-07-12 01:18:58 GMT 51.148331 -113.990440 0 118 5
2018-07-12 01:18:55 GMT 51.148376 -113.990501 0 109 5
2018-07-12 01:18:52 GMT 51.148411 -113.990555 0 104 4
2018-07-12 01:18:46 GMT 51.148468 -113.990723 0 92 4
2018-07-12 01:18:38 GMT 51.148476 -113.990952 0 90 6
2018-07-12 01:18:34 GMT 51.148476 -113.991081 0 90 6
2018-07-12 01:18:25 GMT 51.148476 -113.991508 0 87 7
2018-07-12 01:18:17 GMT 51.148479 -113.991837 0 84 6
2018-07-12 01:18:14 GMT 51.148468 -113.991928 0 84 5
2018-07-12 01:18:02 GMT 51.148464 -113.992134 0 78 0
2018-07-12 01:17:53 GMT 51.148464 -113.992157 0 78 0
2018-07-12 01:17:39 GMT 51.148468 -113.992157 0 78 0
2018-07-12 01:17:34 GMT 51.148464 -113.992157 0 78 0
2018-07-12 01:17:29 GMT 51.148468 -113.992157 0 78 0
2018-07-12 01:17:19 GMT 51.148464 -113.992157 0 78 0
2018-07-12 01:16:59 GMT 51.148468 -113.992157 0 78 0
2018-07-12 01:16:44 GMT 51.148464 -113.992157 0 78 2
2018-07-12 01:16:36 GMT 51.148468 -113.992157 0 78 2
2018-07-12 01:16:30 GMT 51.148464 -113.992157 0 78 0
2018-07-12 01:16:25 GMT 51.148464 -113.992172 0 78 0
2018-07-12 01:16:17 GMT 51.148476 -113.992195 0 75 4
2018-07-12 01:16:14 GMT 51.148479 -113.992271 0 70 5
2018-07-12 01:16:09 GMT 51.148487 -113.992378 0 59 4
2018-07-12 01:16:03 GMT 51.148479 -113.992538 0 47 5
2018-07-12 01:15:58 GMT 51.148453 -113.992638 0 39 6
2018-07-12 01:15:55 GMT 51.148388 -113.992767 0 25 7
2018-07-12 01:15:51 GMT 51.148315 -113.992859 0 33 8
2018-07-12 01:15:48 GMT 51.148258 -113.992920 0 25 8
2018-07-12 01:15:45 GMT 51.148144 -113.992996 0 5 8
2018-07-12 01:15:41 GMT 51.148006 -113.993027 0 0 8
2018-07-12 01:15:38 GMT 51.147934 -113.993034 0 357 8
2018-07-12 01:15:34 GMT 51.147793 -113.993034 0 357 9
2018-07-12 01:15:30 GMT 51.147617 -113.993034 0 357 11
2018-07-12 01:15:27 GMT 51.147537 -113.993027 0 357 12
2018-07-12 01:15:22 GMT 51.147293 -113.993011 0 2 12
2018-07-12 01:15:17 GMT 51.146976 -113.993027 0 0 13
2018-07-12 01:15:13 GMT 51.146770 -113.993027 0 357 13
2018-07-12 01:15:05 GMT 51.146393 -113.993027 0 0 14
2018-07-12 01:15:00 GMT 51.146072 -113.993027 0 357 14
2018-07-12 01:14:55 GMT 51.145744 -113.993034 0 357 14
2018-07-12 01:14:50 GMT 51.145477 -113.993034 0 0 15
2018-07-12 01:14:44 GMT 51.145077 -113.993027 0 357 15
2018-07-12 01:14:41 GMT 51.144814 -113.993011 0 357 15
2018-07-12 01:14:38 GMT 51.144722 -113.993027 0 357 15
2018-07-12 01:14:34 GMT 51.144402 -113.993011 0 0 15
2018-07-12 01:14:30 GMT 51.144138 -113.993011 0 0 15
2018-07-12 01:14:23 GMT 51.143627 -113.993011 0 0 16
2018-07-12 01:14:20 GMT 51.143452 -113.993011 0 357 16
2018-07-12 01:14:17 GMT 51.143246 -113.993027 0 357 16
2018-07-12 01:14:11 GMT 51.142868 -113.993027 0 357 17
2018-07-12 01:14:08 GMT 51.142696 -113.993011 0 357 17
2018-07-12 01:14:02 GMT 51.142170 -113.993027 0 0 17
2018-07-12 01:13:59 GMT 51.141964 -113.993027 0 357 17
2018-07-12 01:13:50 GMT 51.141392 -113.993034 0 357 17
2018-07-12 01:13:47 GMT 51.141182 -113.993011 0 0 17
2018-07-12 01:13:40 GMT 51.140602 -113.993027 0 357 15
2018-07-12 01:13:36 GMT 51.140408 -113.993027 0 0 15
2018-07-12 01:13:30 GMT 51.139984 -113.993027 0 357 16
2018-07-12 01:13:27 GMT 51.139694 -113.993011 0 0 17
2018-07-12 01:13:20 GMT 51.139202 -113.993034 0 0 19
2018-07-12 01:13:15 GMT 51.138878 -113.993034 0 0 20
2018-07-12 01:13:06 GMT 51.138004 -113.993034 0 357 22
2018-07-12 01:12:58 GMT 51.137226 -113.993050 0 357 23
2018-07-12 01:12:55 GMT 51.136940 -113.993027 0 0 23
2018-07-12 01:12:47 GMT 51.136116 -113.993050 0 0 22
2018-07-12 01:12:44 GMT 51.135944 -113.993050 0 0 22
2018-07-12 01:12:33 GMT 51.134857 -113.993027 0 0 21
2018-07-12 01:12:22 GMT 51.133980 -113.993034 0 0 19
2018-07-12 01:12:15 GMT 51.133472 -113.993050 0 0 17
2018-07-12 01:12:12 GMT 51.133175 -113.993050 0 357 16
2018-07-12 01:12:02 GMT 51.132442 -113.993034 0 354 13
2018-07-12 01:11:54 GMT 51.132145 -113.992989 0 357 12
2018-07-12 01:11:50 GMT 51.131920 -113.992973 0 19 13
2018-07-12 01:11:43 GMT 51.131641 -113.993317 0 67 13
2018-07-12 01:11:40 GMT 51.131592 -113.993645 0 87 13
2018-07-12 01:11:30 GMT 51.131603 -113.994659 0 90 12
2018-07-12 01:11:23 GMT 51.131607 -113.995163 0 90 11
2018-07-12 01:11:15 GMT 51.131603 -113.995667 0 90 10
2018-07-12 01:11:12 GMT 51.131607 -113.995865 0 90 10
2018-07-12 01:11:04 GMT 51.131603 -113.996407 0 90 8
2018-07-12 01:11:01 GMT 51.131603 -113.996468 0 90 7
2018-07-12 01:10:56 GMT 51.131603 -113.996796 0 90 7
2018-07-12 01:10:48 GMT 51.131603 -113.997093 0 90 6
2018-07-12 01:10:43 GMT 51.131603 -113.997292 0 90 6
2018-07-12 01:10:40 GMT 51.131607 -113.997368 0 90 6
2018-07-12 01:10:33 GMT 51.131603 -113.997627 0 90 6
2018-07-12 01:10:22 GMT 51.131607 -113.998039 0 90 5
2018-07-12 01:10:14 GMT 51.131603 -113.998322 0 90 5
2018-07-12 01:10:02 GMT 51.131603 -113.998589 0 87 4
2018-07-12 01:09:53 GMT 51.131603 -113.998795 0 90 3

Making use of Plane Finder data

You are free to use the raw flight data, aircraft information and images provided in this report for your own purposes provided the data is correctly attributed to Plane Finder. We ask that you please credit Plane Finder and link to planefinder.net in close proximity to the content.

Optionally one of the following logos (no smaller then 150x24px) can be used and must link to planefinder.net

Embedding the Plane Finder map

You are welcome to embed the Plane Finder playback map on your website to offer visitors a more interactive experience. We suggest using the following HTML code:

<iframe src="//planefinder.net/data/report/TS540-C-GJDA-7700-squawk-2018-07-12/map" width="800" height="600" seamless="seamless"></iframe>

Where our data comes from

Plane Finder has a global network of data feeds and antenna radars that receive data broadcast directly from aircraft. The primary technologies used are ADS-B and MLAT. We also show feeds from the FAA and a FLARM glider feed.

Click here to find out more about the Plane Finder network.

How we collect our data